Home Latest Filings Latest Buys Latest Sells Institutions Derivatives Hot Buys Data Screener Email Alerts Insider Charts
FLIR - As of  11/22/19, 06:38:59 PM:   507 Insider Transactions.

Sector: Industrial Goods    Industry: Aerospace/Defense Products & Services
Prev Close:$32.02  Avg Vol(3m): 787,353  P/E: 22.90  EPS: 1.40

Email this page to a friend.    Institutional Transactions for FLIR

                Buy: Blue    Sell: Red
Non-meaningful transactions (gifts, grants, etc.) are automatically filtered out for quicker actions.
Buy(P) /
Sell(S)
P/S date Filed Date Company Symbol Insider Relationship Share Amt. Unit Price Total Proceeds Shares Owned Return(1m) Details
S 2019-11-12 2019-11-13 14:29:52.0 FLIR SYSTEMS INC FLIR WYNNE STEVEN E director 10,300 $53.58 $551,874.00 24,646 view
S 2019-11-11 2019-11-13 14:26:18.0 FLIR SYSTEMS INC FLIR SMITH MICHAEL T director 9,000 $53.31 $479,790.00 109,445 view
S 2019-11-05 2019-11-06 20:39:07.0 FLIR SYSTEMS INC FLIR LEWIS EARL R director 23,585 $53.57 $1,263,450.00 460,620 view
S 2019-11-04 2019-11-05 18:38:58.0 FLIR SYSTEMS INC FLIR Halligan Catherine Ann director 4,500 $53.06 $238,770.00 10,646 view
S 2019-11-04 2019-11-05 18:38:36.0 FLIR SYSTEMS INC FLIR MACDONALD ANGUS L director 28,370 $53.27 $1,511,270.00 23,900 view
S 2019-10-21 2019-10-22 17:38:37.0 FLIR SYSTEMS INC FLIR BUFFUM ANTHONY D officer (Sr VP, Chief HR Officer) 2,785 $53.41 $148,747.00 14,137 view
S 2019-09-17 2019-09-18 18:11:53.0 FLIR SYSTEMS INC FLIR HARDING BRIAN E officer (VP, Corporate Controller & PAO) 3,625 $52.48 $190,240.00 8,876 view
S 2019-08-21 2019-08-22 21:23:42.0 FLIR SYSTEMS INC FLIR BUFFUM ANTHONY D officer (Sr VP, Chief HR Officer) 300 $47.88 $14,364.00 17,983 view
S 2019-05-10 2019-05-13 16:01:21.0 FLIR SYSTEMS INC FLIR CARTER JOHN D director 10,300 $51.10 $526,330.00 43,237 view
S 2019-05-07 2019-05-07 17:44:12.0 FLIR SYSTEMS INC FLIR FRANK JEFFREY officer (Vice President, Global Product) 3,138 $52.13 $163,584.00 30,872 view
S 2019-05-06 2019-05-07 17:44:12.0 FLIR SYSTEMS INC FLIR FRANK JEFFREY officer (Vice President, Global Product) 18,567 $51.53 $956,758.00 34,010 view
S 2019-04-29 2019-05-01 14:04:23.0 FLIR SYSTEMS INC FLIR LEWIS EARL R director 10,000 $52.48 $524,800.00 176,832 view
S 2019-04-26 2019-04-30 16:41:20.0 FLIR SYSTEMS INC FLIR LEWIS EARL R director 23,116 $51.33 $1,186,540.00 484,031 view
S 2019-04-29 2019-04-30 16:35:47.0 FLIR SYSTEMS INC FLIR WYNNE STEVEN E director 10,000 $52.53 $525,300.00 17,226 view
S 2019-03-15 2019-03-18 13:44:50.0 FLIR SYSTEMS INC FLIR DUCHENE TODD M officer (Sr VP, General Counsel and Sec) 5,000 $50.51 $252,550.00 24,526 view
S 2019-03-14 2019-03-15 14:22:17.0 FLIR SYSTEMS INC FLIR DUCHENE TODD M officer (Sr VP, General Counsel and Sec) 5,000 $50.62 $253,100.00 24,526 view
S 2019-03-13 2019-03-15 14:22:17.0 FLIR SYSTEMS INC FLIR DUCHENE TODD M officer (Sr VP, General Counsel and Sec) 5,000 $50.58 $252,900.00 24,526 view
S 2019-03-14 2019-03-15 14:21:44.0 FLIR SYSTEMS INC FLIR SMITH MICHAEL T director 11,290 $50.75 $572,968.00 105,000 view
S 2019-03-12 2019-03-13 14:52:47.0 FLIR SYSTEMS INC FLIR DUCHENE TODD M officer (Sr VP, General Counsel and Sec) 5,000 $50.44 $252,200.00 24,526 view
S 2019-03-11 2019-03-13 14:52:47.0 FLIR SYSTEMS INC FLIR DUCHENE TODD M officer (Sr VP, General Counsel and Sec) 3,544 $50.18 $177,838.00 24,526 view
S 2019-03-06 2019-03-07 17:47:12.0 FLIR SYSTEMS INC FLIR DUCHENE TODD M officer (Sr VP, General Counsel and Sec) 7,566 $50.61 $382,915.00 28,070 view
S 2019-03-01 2019-03-01 19:26:07.0 FLIR SYSTEMS INC FLIR LEWIS EARL R director 100,000 $51.37 $5,137,000.00 503,783 view
S 2019-02-27 2019-03-01 13:44:02.0 FLIR SYSTEMS INC FLIR FRANK JEFFREY officer (Vice President, Global Product) 14,278 $51.77 $739,172.00 31,331 view
S 2019-02-26 2019-02-27 16:50:25.0 FLIR SYSTEMS INC FLIR LEWIS EARL R director 132,100 $52.11 $6,883,730.00 503,783 view
S 2019-02-25 2019-02-27 14:09:05.0 FLIR SYSTEMS INC FLIR Cannon James J officer (President and CEO) 18,139 $52.64 $954,837.00 113,003 view
S 2018-10-15 2018-10-16 21:50:41.0 FLIR SYSTEMS INC FLIR DUCHENE TODD M officer (Sr VP, General Counsel and Sec) 1,000 $55.63 $55,630.00 37,453 view
S 2018-09-17 2018-09-19 14:08:14.0 FLIR SYSTEMS INC FLIR DUCHENE TODD M officer (Sr VP, General Counsel and Sec) 1,000 $62.95 $62,950.00 37,453 view
S 2018-09-07 2018-09-10 13:47:23.0 FLIR SYSTEMS INC FLIR FRANK JEFFREY officer (Vice President, Global Product) 42,912 $62.19 $2,668,700.00 31,404 view
S 2018-08-30 2018-08-31 14:10:58.0 FLIR SYSTEMS INC FLIR LEWIS EARL R director 20,000 $62.25 $1,245,000.00 503,387 view
S 2018-08-17 2018-08-20 14:42:16.0 FLIR SYSTEMS INC FLIR LEWIS EARL R director 15,000 $59.99 $899,850.00 523,387 view
S 2018-08-16 2018-08-20 14:42:16.0 FLIR SYSTEMS INC FLIR LEWIS EARL R director 10,000 $60.25 $602,500.00 538,387 view
S 2018-08-15 2018-08-16 19:59:31.0 FLIR SYSTEMS INC FLIR DUCHENE TODD M officer (Sr VP, General Counsel and Sec) 1,000 $60.01 $60,010.00 37,453 view
S 2018-07-27 2018-07-31 12:26:48.0 FLIR SYSTEMS INC FLIR LEWIS EARL R director 39,508 $59.05 $2,332,950.00 649,821 view
S 2018-07-19 2018-07-20 12:45:00.0 FLIR SYSTEMS INC FLIR DUCHENE TODD M officer (Sr VP, General Counsel and Sec) 3,844 $54.50 $209,498.00 37,453 view
S 2018-06-01 2018-06-05 13:34:55.0 FLIR SYSTEMS INC FLIR WYNNE STEVEN E director 13,600 $54.68 $743,648.00 24,010 view
S 2018-06-04 2018-06-05 13:34:28.0 FLIR SYSTEMS INC FLIR CARTER JOHN D director 13,600 $54.68 $743,648.00 40,058 view
S 2018-05-22 2018-05-24 16:22:11.0 FLIR SYSTEMS INC FLIR FRANK JEFFREY officer (Vice President, Global Product) 3,526 $54.16 $190,968.00 31,294 view
S 2018-05-04 2018-05-07 15:59:50.0 FLIR SYSTEMS INC FLIR MACDONALD ANGUS L director 22,368 $54.09 $1,209,890.00 20,677 view
S 2018-04-30 2018-05-02 17:07:17.0 FLIR SYSTEMS INC FLIR Crouch William Wright director 74,706 $53.63 $4,006,480.00 13,782 view
S 2018-04-30 2018-05-02 17:04:14.0 FLIR SYSTEMS INC FLIR MACDONALD ANGUS L director 12,532 $54.11 $678,106.00 20,677 view
S 2017-10-30 2017-10-31 18:21:17.0 FLIR SYSTEMS INC FLIR DUCHENE TODD M officer (Sr VP, General Counsel and Sec) 9,000 $47.00 $423,000.00 29,767 view
S 2017-10-30 2017-10-31 18:17:01.0 FLIR SYSTEMS INC FLIR HARDING BRIAN E officer (VP, Corporate Controller & PAO) 1,836 $46.90 $86,108.40 6,646 view
S 2017-10-27 2017-10-31 17:21:18.0 FLIR SYSTEMS INC FLIR MACDONALD ANGUS L director 11,200 $47.35 $530,320.00 17,671 view
S 2017-10-27 2017-10-31 17:20:55.0 FLIR SYSTEMS INC FLIR LEWIS EARL R director 136,631 $47.32 $6,465,380.00 502,485 view
S 2017-10-27 2017-10-31 17:20:34.0 FLIR SYSTEMS INC FLIR CARTER JOHN D director 11,200 $47.36 $530,432.00 37,066 view
S 2017-10-27 2017-10-31 17:20:12.0 FLIR SYSTEMS INC FLIR WYNNE STEVEN E director 11,200 $47.34 $530,208.00 21,011 view
S 2017-09-01 2017-09-05 16:16:00.0 FLIR SYSTEMS INC FLIR SURRAN THOMAS A officer (Sr VP, Chief Operating Officer) 155,908 $38.34 $5,977,510.00 30,855 view
S 2017-08-31 2017-09-05 16:16:00.0 FLIR SYSTEMS INC FLIR SURRAN THOMAS A officer (Sr VP, Chief Operating Officer) 105,412 $38.12 $4,018,310.00 30,855 view
S 2017-08-16 2017-08-17 15:32:11.0 FLIR SYSTEMS INC FLIR LEWIS EARL R director 20,000 $38.22 $764,400.00 509,379 view
S 2017-07-31 2017-08-02 12:27:23.0 FLIR SYSTEMS INC FLIR LEWIS EARL R director 11,587 $37.27 $431,848.00 529,379 view
S 2017-06-14 2017-06-15 14:07:20.0 FLIR SYSTEMS INC FLIR Crouch William Wright director 38,800 $35.95 $1,394,860.00 10,806 view
S 2017-05-18 2017-05-19 15:27:16.0 FLIR SYSTEMS INC FLIR FRANK JEFFREY officer (Vice President, Global Product) 13,971 $37.40 $522,515.00 18,862 N/A view
S 2017-05-12 2017-05-15 12:03:59.0 FLIR SYSTEMS INC FLIR LEWIS EARL R director 15,000 $37.26 $558,900.00 551,234 N/A view
S 2017-04-28 2017-05-02 19:32:33.0 FLIR SYSTEMS INC FLIR TEICH ANDREW C officer (President and CEO) 65,200 $36.61 $2,386,970.00 270,399 N/A view
S 2017-05-02 2017-05-02 19:20:41.0 FLIR SYSTEMS INC FLIR HARRISON SHANE R officer (Sr VP, Corp Dev and Inv Rel) 2,600 $37.13 $96,538.00 18,501 N/A view
S 2017-05-02 2017-05-02 19:19:43.0 FLIR SYSTEMS INC FLIR Merrill Travis D officer (Sr VP, Chief Marketing Officer) 4,000 $37.23 $148,920.00 16,813 N/A view
S 2016-11-03 2016-11-04 13:27:20.0 FLIR SYSTEMS INC FLIR LEWIS EARL R director 52,000 $32.40 $1,684,800.00 520,130 N/A view
S 2016-11-01 2016-11-03 16:25:29.0 FLIR SYSTEMS INC FLIR HARDING BRIAN E officer (VP, Corporate Controller & PAO) 541 $33.00 $17,853.00 6,447 N/A view
S 2016-11-02 2016-11-03 16:25:07.0 FLIR SYSTEMS INC FLIR MACDONALD ANGUS L director 20,000 $32.86 $657,200.00 15,537 N/A view
S 2016-10-28 2016-10-31 15:36:22.0 FLIR SYSTEMS INC FLIR CARTER JOHN D director 20,000 $32.66 $653,200.00 34,992 N/A view
S 2016-09-09 2016-09-12 17:48:19.0 FLIR SYSTEMS INC FLIR FRANK JEFFREY officer (Vice President, Global Product) 10,000 $30.73 $307,300.00 21,769 N/A view
S 2016-06-03 2016-06-06 14:56:36.0 FLIR SYSTEMS INC FLIR LEWIS EARL R director 52,288 $30.99 $1,620,410.00 571,819 N/A view
S 2016-06-03 2016-06-06 14:55:34.0 FLIR SYSTEMS INC FLIR MACDONALD ANGUS L director 5,340 $31.10 $166,074.00 15,528 N/A view
S 2016-03-11 2016-03-14 12:29:03.0 FLIR SYSTEMS INC FLIR WYNNE STEVEN E director 20,000 $31.95 $639,000.00 23,940 N/A view
S 2016-03-10 2016-03-14 12:21:29.0 FLIR SYSTEMS INC FLIR LEWIS EARL R director 11,625 $31.10 $361,538.00 627,969 N/A view
S 2016-03-03 2016-03-07 11:44:02.0 FLIR SYSTEMS INC FLIR LEWIS EARL R director 9,050 $31.95 $289,148.00 639,307 N/A view
S 2016-03-01 2016-03-02 14:27:58.0 FLIR SYSTEMS INC FLIR SMITH MICHAEL T director 15,000 $31.76 $476,400.00 83,563 N/A view
S 2016-02-19 2016-02-23 11:22:07.0 FLIR SYSTEMS INC FLIR LEWIS EARL R director 30,000 $30.61 $918,300.00 648,357 N/A view
S 2016-02-12 2016-02-16 12:27:31.0 FLIR SYSTEMS INC FLIR TEICH ANDREW C officer (President and CEO) 95,538 $28.34 $2,707,550.00 235,924 N/A view
S 2015-12-14 2015-12-15 12:04:32.0 FLIR SYSTEMS INC FLIR Muessle David A officer (Chief Accounting Officer) 35,646 $28.81 $1,026,960.00 91,087 N/A view
S 2015-12-04 2015-12-07 13:29:04.0 FLIR SYSTEMS INC FLIR CARTER JOHN D director 20,000 $30.11 $602,200.00 32,556 N/A view
S 2015-12-03 2015-12-04 14:48:27.0 FLIR SYSTEMS INC FLIR LEWIS EARL R director 50,000 $30.13 $1,506,500.00 693,078 N/A view
S 2015-09-15 2015-09-16 16:05:33.0 FLIR SYSTEMS INC FLIR FRANK JEFFREY officer (Vice President, Global Product) 4,500 $28.37 $127,665.00 25,004 N/A view
S 2015-09-11 2015-09-14 18:59:02.0 FLIR SYSTEMS INC FLIR FRANK JEFFREY officer (Vice President, Global Product) 680 $28.47 $19,359.60 29,504 N/A view
S 2015-07-28 2015-07-30 10:55:36.0 FLIR SYSTEMS INC FLIR LEWIS EARL R director 49,992 $29.95 $1,497,260.00 742,775 N/A view
S 2015-06-02 2015-06-03 14:25:55.0 FLIR SYSTEMS INC FLIR Crouch William Wright director 3,627 $30.60 $110,986.00 12,040 N/A view
S 2015-06-01 2015-06-03 14:25:55.0 FLIR SYSTEMS INC FLIR Crouch William Wright director 16,073 $30.62 $492,155.00 12,040 N/A view
S 2015-05-27 2015-05-28 13:41:02.0 FLIR SYSTEMS INC FLIR LEWIS EARL R director 35,000 $30.86 $1,080,100.00 822,467 N/A view
S 2015-05-18 2015-05-20 12:48:04.0 FLIR SYSTEMS INC FLIR Crouch William Wright director 300 $32.00 $9,600.00 12,040 N/A view
S 2015-05-05 2015-05-06 12:54:47.0 FLIR SYSTEMS INC FLIR LEWIS EARL R director 59,538 $31.47 $1,873,660.00 857,467 N/A view
S 2015-05-04 2015-05-06 12:54:47.0 FLIR SYSTEMS INC FLIR LEWIS EARL R director 20,000 $31.48 $629,600.00 770,467 N/A view
S 2015-05-01 2015-05-04 13:26:48.0 FLIR SYSTEMS INC FLIR LEWIS EARL R director 30,000 $31.07 $932,100.00 770,467 N/A view
S 2015-04-30 2015-05-04 13:26:48.0 FLIR SYSTEMS INC FLIR LEWIS EARL R director 30,000 $30.72 $921,600.00 770,467 N/A view
S 2015-04-28 2015-04-30 18:06:27.0 FLIR SYSTEMS INC FLIR LEWIS EARL R director 20,000 $30.91 $618,200.00 779,623 N/A view
S 2015-03-06 2015-03-09 16:42:13.0 FLIR SYSTEMS INC FLIR LEWIS EARL R director 5,714 $31.59 $180,505.00 777,156 1.42% view
S 2015-02-20 2015-02-23 09:18:35.0 FLIR SYSTEMS INC FLIR SMITH MICHAEL T director 28,000 $32.15 $900,200.00 76,096 1.03% view
S 2015-02-17 2015-02-19 13:52:27.0 FLIR SYSTEMS INC FLIR LEWIS EARL R director 15,218 $32.59 $495,955.00 782,433 1.99% view
S 2015-02-11 2015-02-13 13:17:15.0 FLIR SYSTEMS INC FLIR LEWIS EARL R director 9,068 $32.76 $297,068.00 797,651 5.01% view
S* 2014-12-11 2014-12-12 12:53:49.0 FLIR SYSTEMS INC FLIR LEWIS EARL R director 60,000 $34.47 $2,068,200.00 798,765 10.30% view
S 2014-12-10 2014-12-12 12:53:49.0 FLIR SYSTEMS INC FLIR LEWIS EARL R director 30,000 $32.39 $971,700.00 814,197 4.54% view
S 2014-12-09 2014-12-10 14:59:02.0 FLIR SYSTEMS INC FLIR LEWIS EARL R director 75,000 $32.67 $2,450,250.00 814,197 5.36% view
S 2014-12-08 2014-12-10 14:59:02.0 FLIR SYSTEMS INC FLIR LEWIS EARL R director 50,000 $31.78 $1,589,000.00 819,197 1.67% view
S 2014-12-09 2014-12-10 14:49:00.0 FLIR SYSTEMS INC FLIR TEICH ANDREW C officer (President and CEO) 75,000 $32.71 $2,453,250.00 172,864 5.47% view
S 2014-12-04 2014-12-08 17:52:33.0 FLIR SYSTEMS INC FLIR Muessle David A officer (Chief Accounting Officer) 22,896 $31.43 $719,621.00 64,545 -2.42% view
S 2014-12-05 2014-12-08 17:36:59.0 FLIR SYSTEMS INC FLIR LEWIS EARL R director 50,000 $31.60 $1,580,000.00 829,197 0.38% view
S 2014-12-04 2014-12-08 17:36:59.0 FLIR SYSTEMS INC FLIR LEWIS EARL R director 30,000 $31.44 $943,200.00 838,803 -2.39% view
S 2014-07-31 2014-08-04 12:40:27.0 FLIR SYSTEMS INC FLIR LEWIS EARL R director 50,000 $33.86 $1,693,000.00 848,428 0.21% view
S 2014-07-30 2014-08-01 14:59:02.0 FLIR SYSTEMS INC FLIR LEWIS EARL R director 50,000 $34.38 $1,719,000.00 848,428 1.72% view
S 2014-07-29 2014-07-30 11:44:02.0 FLIR SYSTEMS INC FLIR LEWIS EARL R director 50,000 $34.52 $1,726,000.00 848,428 2.11% view
S 2014-07-28 2014-07-30 11:44:02.0 FLIR SYSTEMS INC FLIR LEWIS EARL R director 50,000 $34.60 $1,730,000.00 848,428 2.72% view
S 2014-05-02 2014-05-05 12:18:45.0 FLIR SYSTEMS INC FLIR MACDONALD ANGUS L director 7,500 $34.95 $262,125.00 16,073 0.37% view
S 2014-05-01 2014-05-05 12:18:45.0 FLIR SYSTEMS INC FLIR MACDONALD ANGUS L director 3,555 $34.61 $123,039.00 23,573 -0.87% view
S 2014-04-29 2014-05-01 13:43:24.0 FLIR SYSTEMS INC FLIR CARTER JOHN D director 48,000 $33.85 $1,624,800.00 30,073 -3.22% view
S 2014-04-29 2014-05-01 13:36:44.0 FLIR SYSTEMS INC FLIR WYNNE STEVEN E director 20,000 $33.94 $678,800.00 21,473 -2.95% view
S 2014-04-29 2014-05-01 13:36:44.0 FLIR SYSTEMS INC FLIR WYNNE STEVEN E director 12,000 $33.93 $407,160.00 21,473 -2.98% view
S 2014-04-01 2014-04-02 12:50:33.0 FLIR SYSTEMS INC FLIR TRUNZO ANTHONY L officer (Sr VP Finance and CFO) 29,996 $36.06 $1,081,660.00 162,001 4.16% view
S 2014-03-31 2014-04-02 12:50:33.0 FLIR SYSTEMS INC FLIR TRUNZO ANTHONY L officer (Sr VP Finance and CFO) 90,004 $36.00 $3,240,140.00 162,001 5.44% view
S 2014-03-14 2014-03-17 10:59:43.0 FLIR SYSTEMS INC FLIR LEWIS EARL R director 40,000 $34.31 $1,372,400.00 855,095 -0.70% view
S 2014-03-13 2014-03-17 10:59:43.0 FLIR SYSTEMS INC FLIR LEWIS EARL R director 50,000 $34.57 $1,728,500.00 855,095 0.93% view
S 2014-03-12 2014-03-13 13:15:15.0 FLIR SYSTEMS INC FLIR FRANK JEFFREY officer (Vice President, Global Product) 3,913 $34.71 $135,820.00 19,280 1.33% view
S 2014-03-07 2014-03-10 11:08:05.0 FLIR SYSTEMS INC FLIR Davis William W. officer (Sr VP, General Counsel and Sec) 2,500 $35.21 $88,025.00 40,760 -0.71% view
S 2014-02-28 2014-03-04 13:08:36.0 FLIR SYSTEMS INC FLIR Crouch William Wright director 27,000 $33.55 $905,850.00 7,433 -5.07% view
S 2014-02-21 2014-02-24 13:00:14.0 FLIR SYSTEMS INC FLIR SMITH MICHAEL T director 9,977 $32.82 $327,445.00 53,956 -7.19% view
S 2013-08-27 2013-08-29 18:29:32.0 FLIR SYSTEMS INC FLIR SURRAN THOMAS A officer (President-Commercial Systems) 15,291 $31.45 $480,902.00 24,425 0.41% view
S 2012-09-05 2012-09-06 15:32:36.0 FLIR SYSTEMS INC FLIR Muessle David A officer (Chief Accounting Officer) 15,000 $19.89 $298,350.00 51,249 -2.82% view
S 2012-03-02 2012-03-05 17:09:17.0 FLIR SYSTEMS INC FLIR LEWIS EARL R officer (CEO, President & Chairman) 33,600 $26.45 $888,720.00 186,832 5.22% view
S 2011-11-02 2011-11-03 14:08:33.0 FLIR SYSTEMS INC FLIR LEWIS EARL R officer (CEO, President & Chairman) 9,925 $25.47 $252,790.00 800,037 -1.06% view
S 2011-11-01 2011-11-03 14:08:33.0 FLIR SYSTEMS INC FLIR LEWIS EARL R officer (CEO, President & Chairman) 10,957 $25.44 $278,746.00 790,994 -4.76% view
S 2011-10-31 2011-11-01 14:11:10.0 FLIR SYSTEMS INC FLIR LEWIS EARL R officer (CEO, President & Chairman) 10,869 $26.62 $289,333.00 781,863 -0.90% view
S 2011-10-28 2011-11-01 14:11:10.0 FLIR SYSTEMS INC FLIR LEWIS EARL R officer (CEO, President & Chairman) 10,827 $27.37 $296,335.00 772,690 8.59% view
S 2011-10-27 2011-10-28 19:42:41.0 FLIR SYSTEMS INC FLIR LEWIS EARL R officer (CEO, President & Chairman) 10,929 $27.29 $298,252.00 763,619 11.32% view
S 2011-10-26 2011-10-28 19:42:41.0 FLIR SYSTEMS INC FLIR LEWIS EARL R officer (CEO, President & Chairman) 10,950 $26.39 $288,970.00 754,569 8.30% view
S 2011-10-25 2011-10-26 15:25:52.0 FLIR SYSTEMS INC FLIR LEWIS EARL R officer (CEO, President & Chairman) 10,863 $26.84 $291,563.00 745,432 9.84% view
S 2011-10-24 2011-10-26 15:25:52.0 FLIR SYSTEMS INC FLIR LEWIS EARL R officer (CEO, President & Chairman) 10,932 $26.90 $294,071.00 736,364 10.19% view
P 2011-08-09 2011-08-10 15:27:14.0 FLIR SYSTEMS INC FLIR MACDONALD ANGUS L director 1,000 $22.72 $22,720.00 38,633 9.42% view
S 2011-07-01 2011-07-05 12:56:39.0 FLIR SYSTEMS INC FLIR Muessle David A officer (Chief Accounting Officer) 15,000 $33.44 $501,600.00 35,602 19.17% view
S 2011-06-15 2011-06-17 14:55:27.0 FLIR SYSTEMS INC FLIR Muessle David A officer (Chief Accounting Officer) 15,000 $33.32 $499,800.00 35,602 13.21% view
S 2011-06-02 2011-06-03 15:07:10.0 FLIR SYSTEMS INC FLIR WYNNE STEVEN E director 36,000 $34.89 $1,256,040.00 10,033 1.98% view
S 2011-06-01 2011-06-02 16:37:05.0 FLIR SYSTEMS INC FLIR Muessle David A officer (Chief Accounting Officer) 15,000 $36.03 $540,450.00 35,602 5.08% view
S 2011-05-03 2011-05-04 13:15:13.0 FLIR SYSTEMS INC FLIR Davis William W. officer (Sr VP, General Counsel and Sec) 5,000 $35.14 $175,700.00 15,979 2.05% view
S 2011-02-02 2011-02-03 16:10:51.0 FLIR SYSTEMS INC FLIR Davis William W. officer (Sr VP, General Counsel and Sec) 5,000 $32.50 $162,500.00 16,961 2.00% view
S 2010-11-05 2010-11-08 14:08:17.0 FLIR SYSTEMS INC FLIR MACDONALD ANGUS L director 20,000 $28.50 $570,000.00 36,893 0.39% view
S 2010-11-04 2010-11-05 18:15:10.0 FLIR SYSTEMS INC FLIR Crouch William Wright director 4,500 $28.39 $127,755.00 2,393 -0.00% view
S 2010-11-04 2010-11-05 18:15:10.0 FLIR SYSTEMS INC FLIR LEWIS EARL R officer (CEO, President & Chairman) 19,300 $28.47 $549,471.00 874,123 0.28% view
S 2010-11-03 2010-11-04 14:04:56.0 FLIR SYSTEMS INC FLIR LEWIS EARL R officer (CEO, President & Chairman) 25,000 $27.74 $693,500.00 874,123 -2.34% view
S 2010-11-02 2010-11-04 14:04:56.0 FLIR SYSTEMS INC FLIR LEWIS EARL R officer (CEO, President & Chairman) 25,000 $27.62 $690,500.00 874,123 -2.68% view
S 2010-11-03 2010-11-04 14:04:22.0 FLIR SYSTEMS INC FLIR WYNNE STEVEN E director 4,000 $27.83 $111,320.00 9,293 -2.01% view
S 2010-11-02 2010-11-04 14:04:22.0 FLIR SYSTEMS INC FLIR WYNNE STEVEN E director 44,000 $27.77 $1,221,880.00 9,293 -2.12% view
S 2010-11-01 2010-11-02 16:34:07.0 FLIR SYSTEMS INC FLIR LEWIS EARL R officer (CEO, President & Chairman) 25,000 $27.50 $687,500.00 874,123 -0.69% view
S 2010-10-29 2010-11-02 16:34:07.0 FLIR SYSTEMS INC FLIR LEWIS EARL R officer (CEO, President & Chairman) 25,000 $27.50 $687,500.00 874,123 1.16% view
S 2010-10-28 2010-10-29 17:20:56.0 FLIR SYSTEMS INC FLIR LEWIS EARL R officer (CEO, President & Chairman) 25,000 $27.57 $689,250.00 874,123 0.62% view
S 2010-10-27 2010-10-29 17:20:55.0 FLIR SYSTEMS INC FLIR LEWIS EARL R officer (CEO, President & Chairman) 25,000 $27.50 $687,500.00 874,123 0.36% view
S 2010-09-22 2010-09-23 18:13:38.0 FLIR SYSTEMS INC FLIR LEWIS EARL R officer (CEO, President & Chairman) 25,000 $27.50 $687,500.00 874,123 3.96% view
S 2010-09-21 2010-09-22 12:45:56.0 FLIR SYSTEMS INC FLIR LEWIS EARL R officer (CEO, President & Chairman) 25,000 $27.65 $691,250.00 874,123 2.21% view
S 2010-09-20 2010-09-22 12:45:56.0 FLIR SYSTEMS INC FLIR LEWIS EARL R officer (CEO, President & Chairman) 25,000 $27.50 $687,500.00 874,123 7.56% view
S 2010-09-14 2010-09-15 18:44:09.0 FLIR SYSTEMS INC FLIR LEWIS EARL R officer (CEO, President & Chairman) 5,700 $27.50 $156,750.00 874,123 7.13% view
S 2010-08-18 2010-08-19 11:56:07.0 FLIR SYSTEMS INC FLIR LEWIS EARL R officer (CEO, President & Chairman) 25,000 $27.51 $687,750.00 874,123 0.98% view
S 2010-08-17 2010-08-19 11:56:07.0 FLIR SYSTEMS INC FLIR LEWIS EARL R officer (CEO, President & Chairman) 25,000 $27.50 $687,500.00 874,123 0.95% view
S 2010-08-02 2010-08-03 17:16:24.0 FLIR SYSTEMS INC FLIR TRUNZO ANTHONY L officer (Sr VP and CFO) 38,138 $29.99 $1,143,760.00 70,545 12.37% view
S 2010-05-25 2010-05-26 16:23:12.0 FLIR SYSTEMS INC FLIR TEICH ANDREW C officer (President-Commercial Systems) 34,733 $26.83 $931,886.00 69,019 -8.65% view
S 2010-05-18 2010-05-19 12:20:05.0 FLIR SYSTEMS INC FLIR TEICH ANDREW C officer (President-Commercial Systems) 8,000 $29.88 $239,040.00 75,752 3.48% view
S 2010-05-11 2010-05-12 13:08:39.0 FLIR SYSTEMS INC FLIR HART JOHN C director 1,160 $29.83 $34,597.00 900 7.29% view
S 2010-05-11 2010-05-12 13:08:08.0 FLIR SYSTEMS INC FLIR TEICH ANDREW C officer (President-Commercial Systems) 8,000 $29.62 $236,960.00 75,752 6.65% view
S 2010-05-04 2010-05-05 14:55:41.0 FLIR SYSTEMS INC FLIR TEICH ANDREW C officer (President-Commercial Systems) 8,000 $30.98 $247,840.00 75,752 10.59% view
S 2010-04-27 2010-04-29 17:56:13.0 FLIR SYSTEMS INC FLIR TEICH ANDREW C officer (President-Commercial Systems) 8,000 $30.29 $242,320.00 75,308 4.79% view
S 2010-04-20 2010-04-21 12:42:50.0 FLIR SYSTEMS INC FLIR TEICH ANDREW C officer (President-Commercial Systems) 8,000 $29.05 $232,400.00 75,308 3.92% view
S 2010-04-13 2010-04-14 13:25:50.0 FLIR SYSTEMS INC FLIR TEICH ANDREW C officer (President-Commercial Systems) 8,000 $28.46 $227,680.00 75,308 -6.25% view
S 2010-04-06 2010-04-07 15:10:28.0 FLIR SYSTEMS INC FLIR TEICH ANDREW C officer (President-Commercial Systems) 8,000 $28.11 $224,880.00 75,308 -3.38% view
S 2010-03-30 2010-03-31 16:28:05.0 FLIR SYSTEMS INC FLIR TEICH ANDREW C officer (President-Commercial Systems) 8,000 $27.92 $223,360.00 75,308 -9.56% view
S 2010-03-23 2010-03-24 14:19:25.0 FLIR SYSTEMS INC FLIR TEICH ANDREW C officer (President-Commercial Systems) 8,000 $27.64 $221,120.00 75,308 -13.68% view
S 2010-03-16 2010-03-17 12:42:26.0 FLIR SYSTEMS INC FLIR TEICH ANDREW C officer (President-Commercial Systems) 4,384 $26.63 $116,746.00 75,308 -9.99% view
S 2010-03-09 2010-03-10 12:40:51.0 FLIR SYSTEMS INC FLIR TEICH ANDREW C officer (President-Commercial Systems) 8,000 $26.57 $212,560.00 75,308 -8.81% view
S 2010-03-02 2010-03-03 13:40:39.0 FLIR SYSTEMS INC FLIR TEICH ANDREW C officer (President-Commercial Systems) 8,000 $26.86 $214,880.00 75,308 -4.58% view
S 2010-02-23 2010-02-24 12:23:21.0 FLIR SYSTEMS INC FLIR TEICH ANDREW C officer (President-Commercial Systems) 8,000 $27.04 $216,320.00 75,308 -2.96% view
S 2010-02-16 2010-02-17 11:44:43.0 FLIR SYSTEMS INC FLIR TEICH ANDREW C officer (President-Commercial Systems) 8,000 $26.68 $213,440.00 75,308 -0.45% view
S 2009-12-28 2009-12-29 15:05:35.0 FLIR SYSTEMS INC FLIR Davis William W. officer (Sr VP, General Counsel and Sec) 5,000 $32.50 $162,500.00 18,521 7.69% view
S 2009-12-09 2009-12-10 19:35:59.0 FLIR SYSTEMS INC FLIR BAILEY STEPHEN M officer (Sr Vice President & CFO) 22,000 $29.71 $653,620.00 78,962 -10.84% view
S 2009-12-04 2009-12-07 10:45:03.0 FLIR SYSTEMS INC FLIR HART JOHN C director 5,000 $30.05 $150,250.00 1,160 -8.62% view
S 2009-12-02 2009-12-03 16:33:07.0 FLIR SYSTEMS INC FLIR BAILEY STEPHEN M officer (Sr Vice President & CFO) 20,000 $29.09 $581,800.00 78,962 -12.51% view
S 2009-11-24 2009-11-25 11:28:03.0 FLIR SYSTEMS INC FLIR LEWIS EARL R officer (CEO, President & Chairman) 25,000 $29.25 $731,250.00 896,239 -10.22% view
S 2009-11-23 2009-11-25 11:28:03.0 FLIR SYSTEMS INC FLIR LEWIS EARL R officer (CEO, President & Chairman) 25,000 $29.92 $748,000.00 896,239 -6.68% view
S 2009-11-20 2009-11-23 15:49:33.0 FLIR SYSTEMS INC FLIR LEWIS EARL R officer (CEO, President & Chairman) 25,000 $29.39 $734,750.00 896,239 -3.23% view
S 2009-11-19 2009-11-23 15:49:33.0 FLIR SYSTEMS INC FLIR LEWIS EARL R officer (CEO, President & Chairman) 25,000 $29.77 $744,250.00 896,239 -1.91% view
S 2009-11-18 2009-11-19 12:18:24.0 FLIR SYSTEMS INC FLIR LEWIS EARL R officer (CEO, President & Chairman) 25,000 $30.03 $750,750.00 896,239 -1.03% view
S 2009-11-17 2009-11-19 12:18:24.0 FLIR SYSTEMS INC FLIR LEWIS EARL R officer (CEO, President & Chairman) 25,000 $29.83 $745,750.00 896,239 -0.30% view
S 2009-11-17 2009-11-19 12:18:03.0 FLIR SYSTEMS INC FLIR HART JOHN C director 5,000 $29.90 $149,500.00 1,160 -0.07% view
S 2009-11-16 2009-11-17 12:14:08.0 FLIR SYSTEMS INC FLIR LEWIS EARL R officer (CEO, President & Chairman) 25,000 $29.23 $730,750.00 896,239 -3.49% view
S 2009-11-13 2009-11-17 12:14:08.0 FLIR SYSTEMS INC FLIR LEWIS EARL R officer (CEO, President & Chairman) 25,000 $28.72 $718,000.00 896,239 -4.25% view
S 2009-11-11 2009-11-13 12:39:46.0 FLIR SYSTEMS INC FLIR BAILEY STEPHEN M officer (Sr Vice President & CFO) 22,000 $28.80 $633,600.00 78,962 -3.96% view
S 2009-11-12 2009-11-13 12:39:25.0 FLIR SYSTEMS INC FLIR LEWIS EARL R officer (CEO, President & Chairman) 25,000 $28.80 $720,000.00 896,239 -3.96% view
S 2009-11-11 2009-11-13 12:39:25.0 FLIR SYSTEMS INC FLIR LEWIS EARL R officer (CEO, President & Chairman) 25,000 $28.80 $720,000.00 896,239 -3.96% view
S 2009-11-12 2009-11-13 12:39:19.0 FLIR SYSTEMS INC FLIR ALMERFORS ARNE officer (Executive Vice President) 43,800 $28.60 $1,252,680.00 139,599 -4.69% view
S 2009-11-10 2009-11-12 12:06:21.0 FLIR SYSTEMS INC FLIR LEWIS EARL R officer (CEO, President & Chairman) 25,000 $28.82 $720,500.00 896,239 -4.82% view
S 2009-11-09 2009-11-12 12:06:21.0 FLIR SYSTEMS INC FLIR LEWIS EARL R officer (CEO, President & Chairman) 25,000 $28.71 $717,750.00 896,239 -4.77% view
S 2009-11-06 2009-11-10 12:22:29.0 FLIR SYSTEMS INC FLIR HART JOHN C director 3,000 $28.47 $85,410.00 1,160 -4.67% view
S 2009-11-05 2009-11-06 14:55:41.0 FLIR SYSTEMS INC FLIR ALMERFORS ARNE officer (Executive Vice President) 30,000 $28.04 $841,200.00 139,599 -6.28% view
S 2009-11-04 2009-11-05 19:45:12.0 FLIR SYSTEMS INC FLIR BAILEY STEPHEN M officer (Sr Vice President & CFO) 22,000 $27.88 $613,360.00 78,484 -6.89% view
S 2009-10-28 2009-10-29 15:09:27.0 FLIR SYSTEMS INC FLIR BAILEY STEPHEN M officer (Sr Vice President & CFO) 22,384 $29.02 $649,584.00 78,484 0.79% view
S 2009-09-23 2009-09-24 19:17:46.0 FLIR SYSTEMS INC FLIR TEICH ANDREW C officer (President-Commercial Vision Sy) 10,000 $28.02 $280,200.00 75,855 -4.68% view
S 2009-09-16 2009-09-17 13:51:24.0 FLIR SYSTEMS INC FLIR TEICH ANDREW C officer (President-Commercial Vision Sy) 10,000 $27.16 $271,600.00 75,855 -5.38% view
S 2009-09-16 2009-09-17 13:51:04.0 FLIR SYSTEMS INC FLIR BAILEY STEPHEN M officer (Sr Vice President & CFO) 70,000 $28.00 $1,960,000.00 78,483 -2.21% view
S 2009-09-14 2009-09-15 12:31:46.0 FLIR SYSTEMS INC FLIR BAILEY STEPHEN M officer (Sr Vice President & CFO) 34,944 $26.00 $908,544.00 78,483 -8.31% view
S 2009-09-14 2009-09-14 13:49:44.0 FLIR SYSTEMS INC FLIR HART JOHN C director 400 $26.72 $10,688.00 1,160 -5.39% view
S 2009-09-11 2009-09-14 13:49:43.0 FLIR SYSTEMS INC FLIR HART JOHN C director 4,000 $24.91 $99,640.00 1,560 -11.60% view
S 2009-09-09 2009-09-10 12:58:40.0 FLIR SYSTEMS INC FLIR HART JOHN C director 3,000 $24.01 $72,030.00 1,560 -15.79% view
S 2009-09-09 2009-09-10 12:58:30.0 FLIR SYSTEMS INC FLIR TEICH ANDREW C officer (President-Commercial Vision Sy) 10,000 $23.64 $236,400.00 75,855 -17.60% view
S 2009-09-02 2009-09-03 16:27:47.0 FLIR SYSTEMS INC FLIR TEICH ANDREW C officer (President-Commercial Vision Sy) 10,000 $22.51 $225,100.00 75,855 -19.77% view
S 2009-09-01 2009-09-02 11:25:39.0 FLIR SYSTEMS INC FLIR HART JOHN C director 800 $22.90 $18,320.00 1,560 -16.72% view
S 2009-08-26 2009-08-27 12:12:36.0 FLIR SYSTEMS INC FLIR TEICH ANDREW C officer (President-Commercial Vision Sy) 10,000 $22.57 $225,700.00 75,855 -22.33% view
S 2009-08-19 2009-08-20 13:50:50.0 FLIR SYSTEMS INC FLIR TEICH ANDREW C officer (President-Commercial Vision Sy) 5,000 $21.93 $109,650.00 75,855 -27.54% view
S 2009-08-13 2009-08-14 13:37:16.0 FLIR SYSTEMS INC FLIR ALMERFORS ARNE officer (Executive Vice President) 30,000 $22.67 $680,100.00 139,599 -14.03% view
S 2009-08-12 2009-08-13 13:20:00.0 FLIR SYSTEMS INC FLIR TEICH ANDREW C officer (President-Commercial Vision Sy) 5,000 $21.70 $108,500.00 75,855 -19.12% view
S 2009-08-06 2009-08-10 12:45:41.0 FLIR SYSTEMS INC FLIR ALMERFORS ARNE officer (Executive Vice President) 30,000 $21.32 $639,600.00 139,599 -8.82% view
S 2009-08-05 2009-08-06 12:02:14.0 FLIR SYSTEMS INC FLIR TEICH ANDREW C officer (President-Commercial Vision Sy) 5,000 $21.58 $107,900.00 75,855 -7.51% view
S 2009-07-29 2009-07-31 11:13:36.0 FLIR SYSTEMS INC FLIR TEICH ANDREW C officer (President-Commercial Vision Sy) 6,616 $21.19 $140,193.00 75,855 -9.01% view
S 2009-06-12 2009-06-15 12:47:51.0 FLIR SYSTEMS INC FLIR WYNNE STEVEN E director 48,000 $23.92 $1,147,940.00 8,393 12.86% view
S 2009-06-10 2009-06-11 12:53:54.0 FLIR SYSTEMS INC FLIR HART JOHN C director 800 $24.03 $19,225.60 2,360 N/A view
S 2009-06-05 2009-06-09 14:14:58.0 FLIR SYSTEMS INC FLIR HART JOHN C director 833 $24.45 $20,366.80 3,160 N/A view
S 2009-05-26 2009-05-27 10:21:46.0 FLIR SYSTEMS INC FLIR HART JOHN C director 4,000 $23.92 $95,665.60 3,993 4.71% view
P 2009-05-22 2009-05-22 17:57:47.0 FLIR SYSTEMS INC FLIR WOOD JOHN W JR director 2,500 $23.98 $59,950.00 5,000 -7.05% view
P 2009-05-21 2009-05-22 17:57:47.0 FLIR SYSTEMS INC FLIR WOOD JOHN W JR director 2,500 $24.12 $60,300.00 2,500 -4.93% view
S 2009-05-14 2009-05-15 13:31:32.0 FLIR SYSTEMS INC FLIR ALMERFORS ARNE officer (Executive Vice President) 20,000 $24.44 $488,800.00 139,599 -0.82% view
S 2009-05-07 2009-05-08 15:51:04.0 FLIR SYSTEMS INC FLIR ALMERFORS ARNE officer (Executive Vice President) 20,000 $25.21 $504,200.00 139,599 2.82% view
S 2009-05-05 2009-05-07 20:19:34.0 FLIR SYSTEMS INC FLIR BAILEY STEPHEN M officer (Sr Vice President & CFO) 30,000 $25.81 $774,393.00 78,483 5.09% view
S 2009-05-06 2009-05-07 14:20:06.0 FLIR SYSTEMS INC FLIR HART JOHN C director 2,000 $25.67 $51,346.00 3,993 4.57% view
S 2009-03-03 2009-03-04 17:20:52.0 FLIR SYSTEMS INC FLIR HART JOHN C director 2,000 $19.97 $39,946.00 2,833 -9.55% view
S 2009-02-19 2009-02-20 16:25:38.0 FLIR SYSTEMS INC FLIR ALMERFORS ARNE officer (Executive Vice President) 20,000 $20.79 $415,800.00 137,749 -1.88% view
S 2009-02-12 2009-02-17 18:13:33.0 FLIR SYSTEMS INC FLIR ALMERFORS ARNE officer (Executive Vice President) 20,000 $21.73 $434,600.00 137,749 6.21% view
S 2009-01-05 2009-01-06 17:21:45.0 FLIR SYSTEMS INC FLIR BAILEY STEPHEN M officer (Sr Vice President & CFO) 75,000 $31.39 $2,354,380.00 65,618 27.94% view
S 2008-12-31 2009-01-05 13:01:47.0 FLIR SYSTEMS INC FLIR TEICH ANDREW C officer (President Commercial Vision Sy) 31,000 $30.00 $930,000.00 65,574 16.77% view
S 2008-12-03 2008-12-04 17:00:29.0 FLIR SYSTEMS INC FLIR TEICH ANDREW C officer (President Commercial Vision Sy) 15,000 $30.08 $451,200.00 96,574 -5.59% view
S 2008-11-19 2008-11-20 13:30:28.0 FLIR SYSTEMS INC FLIR LEWIS EARL R officer (CEO, President & Chairman) 15,000 $30.98 $464,655.00 938,711 13.00% view
S 2008-11-18 2008-11-20 13:30:28.0 FLIR SYSTEMS INC FLIR LEWIS EARL R officer (CEO, President & Chairman) 15,000 $30.16 $452,364.00 938,711 12.33% view
S 2008-11-17 2008-11-18 16:19:30.0 FLIR SYSTEMS INC FLIR LEWIS EARL R officer (CEO, President & Chairman) 15,000 $30.00 $450,000.00 938,711 12.33% view
S 2008-11-14 2008-11-17 13:16:19.0 FLIR SYSTEMS INC FLIR LEWIS EARL R officer (CEO, President & Chairman) 15,000 $30.99 $464,862.00 938,711 19.01% view
S 2008-11-13 2008-11-17 13:16:19.0 FLIR SYSTEMS INC FLIR LEWIS EARL R officer (CEO, President & Chairman) 30,000 $30.15 $904,479.00 938,711 16.75% view
S 2008-11-13 2008-11-17 12:24:21.0 FLIR SYSTEMS INC FLIR ALMERFORS ARNE officer (Executive Vice President) 40,000 $27.65 $1,106,000.00 137,749 9.22% view
S 2008-11-11 2008-11-12 15:37:47.0 FLIR SYSTEMS INC FLIR LEWIS EARL R officer (CEO, President & Chairman) 15,000 $30.00 $450,000.00 938,711 17.90% view
S 2008-11-10 2008-11-12 15:37:47.0 FLIR SYSTEMS INC FLIR LEWIS EARL R officer (CEO, President & Chairman) 15,000 $30.51 $457,612.00 938,711 16.22% view
S 2008-11-07 2008-11-12 15:37:47.0 FLIR SYSTEMS INC FLIR LEWIS EARL R officer (CEO, President & Chairman) 15,000 $30.04 $450,568.00 938,711 4.39% view
S 2008-11-06 2008-11-07 15:03:10.0 FLIR SYSTEMS INC FLIR ALMERFORS ARNE officer (Executive Vice President) 40,000 $31.86 $1,274,400.00 137,749 9.86% view
S 2008-11-06 2008-11-07 15:02:48.0 FLIR SYSTEMS INC FLIR LEWIS EARL R officer (CEO, President & Chairman) 15,000 $31.49 $472,281.00 938,711 8.78% view
S 2008-11-05 2008-11-06 16:35:45.0 FLIR SYSTEMS INC FLIR LEWIS EARL R officer (CEO, President & Chairman) 15,000 $32.81 $492,176.00 938,711 12.47% view
S 2008-11-04 2008-11-06 16:35:45.0 FLIR SYSTEMS INC FLIR LEWIS EARL R officer (CEO, President & Chairman) 15,000 $32.75 $491,210.00 938,711 18.92% view
S 2008-11-04 2008-11-05 17:49:18.0 FLIR SYSTEMS INC FLIR TRUNZO ANTHONY L officer (Sr VP Corp Strategy & Dvlpmnt) 14,000 $33.00 $462,000.00 63,032 19.55% view
S 2008-11-04 2008-11-05 17:42:32.0 FLIR SYSTEMS INC FLIR BAILEY STEPHEN M officer (Sr Vice President & CFO) 75,000 $33.00 $2,475,280.00 65,618 19.55% view
S 2008-11-04 2008-11-05 17:41:48.0 FLIR SYSTEMS INC FLIR HART JOHN C director 6,000 $32.10 $192,606.00 4,833 17.29% view
S 2008-11-03 2008-11-04 16:16:43.0 FLIR SYSTEMS INC FLIR LEWIS EARL R officer (CEO, President & Chairman) 15,000 $32.20 $482,986.00 938,356 11.58% view
S 2008-10-31 2008-11-04 16:16:43.0 FLIR SYSTEMS INC FLIR LEWIS EARL R officer (CEO, President & Chairman) 15,000 $30.95 $464,280.00 938,356 -0.16% view
S 2008-10-30 2008-10-31 13:56:17.0 FLIR SYSTEMS INC FLIR LEWIS EARL R officer (CEO, President & Chairman) 15,000 $30.00 $450,000.00 938,356 -3.33% view
S 2008-10-29 2008-10-31 13:56:17.0 FLIR SYSTEMS INC FLIR LEWIS EARL R officer (CEO, President & Chairman) 30,000 $30.00 $900,000.00 938,356 -3.33% view
S 2008-08-15 2008-08-19 08:00:04.0 FLIR SYSTEMS INC FLIR BAILEY STEPHEN M officer (Sr Vice President & CFO) 30,000 $38.68 $1,160,510.00 65,263 13.94% view
S 2008-08-11 2008-08-13 16:58:26.0 FLIR SYSTEMS INC FLIR ALMERFORS ARNE officer (Executive Vice President) 20,000 $37.99 $759,758.00 137,749 8.31% view
S 2008-08-11 2008-08-13 16:57:58.0 FLIR SYSTEMS INC FLIR BAILEY STEPHEN M officer (Sr Vice President & CFO) 33,472 $38.25 $1,280,430.00 65,263 8.95% view
S 2008-08-08 2008-08-11 19:13:27.0 FLIR SYSTEMS INC FLIR CARTER JOHN D director 48,000 $38.88 $1,866,040.00 20,833 11.67% view
S 2008-08-05 2008-08-06 14:53:50.0 FLIR SYSTEMS INC FLIR TRUNZO ANTHONY L officer (Sr VP Corp Strategy & Dvlpmnt) 14,000 $37.69 $527,622.00 62,677 9.25% view
S 2008-08-04 2008-08-05 15:46:56.0 FLIR SYSTEMS INC FLIR ALMERFORS ARNE officer (Executive Vice President) 20,000 $39.30 $786,016.00 137,749 13.06% view
S 2008-07-31 2008-08-04 13:54:07.0 FLIR SYSTEMS INC FLIR HART JOHN C director 8,000 $40.86 $326,911.00 4,833 12.64% view
S 2008-07-31 2008-08-04 13:52:45.0 FLIR SYSTEMS INC FLIR TEICH ANDREW C officer (President Commercial Vision Sy) 2,168 $40.60 $88,020.80 111,219 12.07% view
S 2008-07-30 2008-08-01 12:53:07.0 FLIR SYSTEMS INC FLIR ALMERFORS ARNE officer (Executive Vice President) 20,000 $39.77 $795,400.00 137,749 10.23% view
S 2008-07-29 2008-07-30 18:53:57.0 FLIR SYSTEMS INC FLIR TEICH ANDREW C officer (President Commercial Vision Sy) 2,684 $39.60 $106,286.00 113,387 9.85% view
S 2008-07-28 2008-07-29 13:51:55.0 FLIR SYSTEMS INC FLIR BAILEY STEPHEN M officer (Sr Vice President & CFO) 40,000 $39.51 $1,580,420.00 65,263 6.63% view
S 2008-07-01 2008-07-02 12:07:26.0 FLIR SYSTEMS INC FLIR SUNDERMEIER WILLIAM A officer (President Government Systems) 32,944 $42.67 $1,405,570.00 40,420 6.41% view
S 2008-07-01 2008-07-02 12:07:26.0 FLIR SYSTEMS INC FLIR SUNDERMEIER WILLIAM A officer (President Government Systems) 20,000 $42.66 $853,294.00 73,364 6.41% view
S 2008-06-23 2008-06-24 13:14:54.0 FLIR SYSTEMS INC FLIR SUNDERMEIER WILLIAM A officer (President Government Systems) 20,000 $37.96 $759,216.00 40,420 -12.70% view
S 2008-06-16 2008-06-17 12:31:06.0 FLIR SYSTEMS INC FLIR SMITH MICHAEL T director 48,000 $38.72 $1,858,320.00 8,833 -9.65% view
S 2008-06-09 2008-06-10 16:36:58.0 FLIR SYSTEMS INC FLIR SUNDERMEIER WILLIAM A officer (President Government Systems) 20,000 $37.36 $747,112.00 40,420 -14.79% view
S 2008-06-02 2008-06-03 12:50:43.0 FLIR SYSTEMS INC FLIR SUNDERMEIER WILLIAM A officer (President Government Systems) 100,000 $38.61 $3,861,030.00 40,420 -10.44% view
S 2008-05-27 2008-05-28 14:20:18.0 FLIR SYSTEMS INC FLIR SUNDERMEIER WILLIAM A officer (President Government Systems) 20,000 $38.11 $762,104.00 40,420 -8.59% view
S 2008-05-23 2008-05-27 13:55:04.0 FLIR SYSTEMS INC FLIR MACDONALD ANGUS L director 16,914 $38.23 $646,642.00 34,833 -3.16% view
S 2008-05-22 2008-05-27 13:55:04.0 FLIR SYSTEMS INC FLIR MACDONALD ANGUS L director 13,086 $37.63 $492,455.00 51,747 -4.17% view
S 2008-05-22 2008-05-27 13:55:04.0 FLIR SYSTEMS INC FLIR MACDONALD ANGUS L director 24,000 $37.50 $900,118.00 64,833 -4.52% view
S 2008-05-22 2008-05-27 12:53:34.0 FLIR SYSTEMS INC FLIR SUNDERMEIER WILLIAM A officer (President Government Systems) 75,000 $37.00 $2,775,000.00 40,420 -5.95% view
S 2008-05-16 2008-05-19 13:51:07.0 FLIR SYSTEMS INC FLIR HART JOHN C director 14,000 $35.11 $491,603.00 4,833 -10.15% view
S 2008-05-12 2008-05-13 14:17:26.0 FLIR SYSTEMS INC FLIR ALMERFORS ARNE officer (Executive Vice President) 20,000 $32.67 $653,484.00 137,749 -9.44% view
S 2008-05-12 2008-05-13 14:16:40.0 FLIR SYSTEMS INC FLIR SUNDERMEIER WILLIAM A officer (President Government Systems) 20,000 $32.94 $658,786.00 40,420 -8.56% view
S 2008-05-09 2008-05-12 13:23:44.0 FLIR SYSTEMS INC FLIR LEWIS EARL R officer (CEO, President & Chairman) 50,376 $32.77 $1,650,730.00 964,359 -15.72% view
S 2008-05-08 2008-05-09 13:35:45.0 FLIR SYSTEMS INC FLIR LEWIS EARL R officer (CEO, President & Chairman) 50,374 $33.29 $1,676,720.00 964,359 -12.81% view
S 2008-05-07 2008-05-09 13:35:45.0 FLIR SYSTEMS INC FLIR LEWIS EARL R officer (CEO, President & Chairman) 50,374 $34.02 $1,713,690.00 964,359 -10.38% view
S 2008-05-06 2008-05-07 17:05:47.0 FLIR SYSTEMS INC FLIR LEWIS EARL R officer (CEO, President & Chairman) 50,374 $33.97 $1,711,180.00 964,359 -10.54% view
S 2008-05-05 2008-05-07 17:05:47.0 FLIR SYSTEMS INC FLIR LEWIS EARL R officer (CEO, President & Chairman) 50,374 $34.06 $1,715,780.00 964,359 -18.02% view
S 2008-05-06 2008-05-07 17:05:29.0 FLIR SYSTEMS INC FLIR TRUNZO ANTHONY L officer (Sr VP Corp Strategy & Dvlpmnt) 14,000 $33.91 $474,723.00 62,320 -10.74% view
S 2008-05-05 2008-05-06 16:13:12.0 FLIR SYSTEMS INC FLIR BAILEY STEPHEN M officer (Sr Vice President & CFO) 60,000 $34.07 $2,044,310.00 112,806 -17.99% view
S 2008-05-05 2008-05-06 16:12:50.0 FLIR SYSTEMS INC FLIR ALMERFORS ARNE officer (Executive Vice President) 20,000 $34.22 $684,308.00 137,749 -17.49% view
S 2008-05-01 2008-05-05 14:12:30.0 FLIR SYSTEMS INC FLIR SUNDERMEIER WILLIAM A officer (President Government Systems) 25,000 $35.00 $875,000.00 41,291 -12.63% view
S 2008-04-30 2008-05-02 13:23:52.0 FLIR SYSTEMS INC FLIR WYNNE STEVEN E director 80,000 $34.64 $2,771,180.00 7,233 -13.80% view
S 2008-04-30 2008-05-02 13:23:17.0 FLIR SYSTEMS INC FLIR MACDONALD ANGUS L director 24,000 $34.48 $827,549.00 64,833 -14.32% view
S 2008-04-30 2008-05-02 12:55:40.0 FLIR SYSTEMS INC FLIR ALMERFORS ARNE officer (Executive Vice President) 20,000 $34.07 $681,344.00 137,749 -15.71% view
S 2008-04-29 2008-05-01 13:26:11.0 FLIR SYSTEMS INC FLIR BAILEY STEPHEN M officer (Sr Vice President & CFO) 60,000 $34.03 $2,042,020.00 112,806 -14.89% view
S 2008-04-29 2008-05-01 13:25:59.0 FLIR SYSTEMS INC FLIR SUNDERMEIER WILLIAM A officer (President Government Systems) 20,000 $34.04 $680,726.00 41,291 -14.88% view
S 2008-03-11 2008-03-12 13:45:58.0 FLIR SYSTEMS INC FLIR HART JOHN C director 14,000 $26.98 $377,657.00 4,000 -7.80% view
S 2008-03-07 2008-03-10 13:27:19.0 FLIR SYSTEMS INC FLIR HART JOHN C director 2,000 $25.59 $51,186.00 4,000 -20.85% view
S* 2008-03-03 2008-03-05 11:47:12.0 FLIR SYSTEMS INC FLIR HART JOHN C director 2,000 $30.88 $61,764.00 4,000 -0.12% view
S 2008-02-25 2008-02-27 16:16:31.0 FLIR SYSTEMS INC FLIR HART JOHN C director 2,000 $30.88 $61,764.00 4,000 4.77% view
S* 2008-02-21 2008-02-25 11:40:12.0 FLIR SYSTEMS INC FLIR HART JOHN C director 2,000 $33.04 $66,080.00 4,000 15.53% view
S 2008-02-20 2008-02-21 21:37:51.0 FLIR SYSTEMS INC FLIR Crouch William Wright director 21,000 $31.07 $652,403.00 4,000 10.16% view
S 2008-02-15 2008-02-19 17:01:35.0 FLIR SYSTEMS INC FLIR LEWIS EARL R officer (CEO, President & Chairman) 70,374 $31.38 $2,208,060.00 845,176 16.88% view
S 2008-02-14 2008-02-19 17:01:35.0 FLIR SYSTEMS INC FLIR LEWIS EARL R officer (CEO, President & Chairman) 70,374 $32.78 $2,306,700.00 845,176 20.43% view
S 2008-02-14 2008-02-19 17:01:01.0 FLIR SYSTEMS INC FLIR TRUNZO ANTHONY L officer (Sr VP Corp Strategy & Dvlpmnt) 14,000 $32.72 $458,055.00 48,879 20.29% view
S 2008-02-13 2008-02-14 13:13:09.0 FLIR SYSTEMS INC FLIR HART JOHN C director 2,000 $33.04 $66,080.00 4,000 19.82% view
S 2008-02-13 2008-02-14 13:13:09.0 FLIR SYSTEMS INC FLIR LEWIS EARL R officer (CEO, President & Chairman) 70,374 $32.89 $2,314,420.00 845,176 19.45% view
S 2008-02-12 2008-02-13 15:42:19.0 FLIR SYSTEMS INC FLIR LEWIS EARL R officer (CEO, President & Chairman) 70,374 $32.74 $2,303,780.00 846,176 18.65% view
S 2008-02-11 2008-02-13 15:42:19.0 FLIR SYSTEMS INC FLIR LEWIS EARL R officer (CEO, President & Chairman) 70,374 $32.58 $2,292,600.00 845,176 17.24% view
S 2008-02-11 2008-02-13 15:24:01.0 FLIR SYSTEMS INC FLIR HART JOHN C director 6,000 $32.48 $194,864.00 4,000 16.99% view
S 2007-11-16 2007-11-19 15:25:28.0 FLIR SYSTEMS INC FLIR LEWIS EARL R officer (CEO, President & Chairman) 35,187 $63.14 $2,221,800.00 422,530 52.16% view
S 2007-11-15 2007-11-19 15:25:28.0 FLIR SYSTEMS INC FLIR LEWIS EARL R officer (CEO, President & Chairman) 35,187 $63.00 $2,216,870.00 422,530 52.05% view
S 2007-11-15 2007-11-19 14:23:02.0 FLIR SYSTEMS INC FLIR WYNNE STEVEN E director 20,000 $63.03 $1,260,540.00 3,200 52.07% view
S 2007-11-13 2007-11-15 15:17:38.0 FLIR SYSTEMS INC FLIR ALMERFORS ARNE officer (Executive Vice President) 70,000 $64.68 $4,527,450.00 63,130 51.34% view
S 2007-11-14 2007-11-15 15:17:12.0 FLIR SYSTEMS INC FLIR LEWIS EARL R officer (CEO, President & Chairman) 35,187 $64.45 $2,267,970.00 422,530 53.13% view
S 2007-11-13 2007-11-15 15:17:12.0 FLIR SYSTEMS INC FLIR LEWIS EARL R officer (CEO, President & Chairman) 35,187 $64.20 $2,259,060.00 422,530 50.98% view
S 2007-11-12 2007-11-14 12:16:50.0 FLIR SYSTEMS INC FLIR LEWIS EARL R officer (CEO, President & Chairman) 35,187 $61.85 $2,176,280.00 422,530 48.58% view
S 2007-11-06 2007-11-08 11:56:31.0 FLIR SYSTEMS INC FLIR TRUNZO ANTHONY L officer (Sr VP Corp Strategy & Dvlpmnt) 7,000 $70.85 $495,956.00 22,877 4.59% view
S 2007-11-06 2007-11-08 11:52:15.0 FLIR SYSTEMS INC FLIR HART JOHN C director 2,000 $72.51 $145,020.00 2,000 6.77% view
S 2007-11-05 2007-11-07 12:27:01.0 FLIR SYSTEMS INC FLIR HART JOHN C director 2,000 $71.00 $142,000.00 2,000 2.45% view
S 2007-11-01 2007-11-02 14:26:24.0 FLIR SYSTEMS INC FLIR SUNDERMEIER WILLIAM A officer (President Government Systems) 608 $68.51 $41,654.10 12,987 -0.32% view
S 2007-10-30 2007-11-01 16:12:24.0 FLIR SYSTEMS INC FLIR HART JOHN C director 2,000 $69.32 $138,641.00 2,000 0.85% view
S 2007-08-31 2007-09-04 15:02:40.0 FLIR SYSTEMS INC FLIR HART JOHN C director 1,000 $49.29 $49,289.00 2,000 -12.38% view
S 2007-08-30 2007-09-04 15:02:40.0 FLIR SYSTEMS INC FLIR HART JOHN C director 1,000 $49.50 $49,500.00 2,000 -11.90% view
S 2007-08-27 2007-08-28 16:29:22.0 FLIR SYSTEMS INC FLIR TEICH ANDREW C officer (President Commercial Vision Sy) 7,500 $48.93 $366,951.00 29,577 -16.26% view
S 2007-08-21 2007-08-23 11:42:29.0 FLIR SYSTEMS INC FLIR BAILEY STEPHEN M officer (Sr Vice President & CFO) 10,000 $50.39 $503,873.00 49,665 -8.28% view
S 2007-08-20 2007-08-22 11:42:51.0 FLIR SYSTEMS INC FLIR TEICH ANDREW C officer (President Commercial Vision Sy) 7,500 $50.88 $381,615.00 29,577 -7.92% view
S 2007-08-17 2007-08-21 13:52:33.0 FLIR SYSTEMS INC FLIR HART JOHN C director 1,000 $53.05 $53,045.40 2,000 5.31% view
S 2007-08-17 2007-08-21 13:52:01.0 FLIR SYSTEMS INC FLIR LEWIS EARL R officer (CEO, President & Chairman) 25,187 $51.83 $1,305,540.00 434,169 3.09% view
S 2007-08-16 2007-08-17 17:11:23.0 FLIR SYSTEMS INC FLIR LEWIS EARL R officer (CEO, President & Chairman) 25,187 $47.24 $1,189,860.00 434,169 -7.77% view
S 2007-08-16 2007-08-17 17:11:18.0 FLIR SYSTEMS INC FLIR HART JOHN C director 1,000 $49.30 $49,300.00 2,000 -3.27% view
S 2007-08-15 2007-08-16 17:11:00.0 FLIR SYSTEMS INC FLIR LEWIS EARL R officer (CEO, President & Chairman) 25,187 $47.69 $1,201,170.00 434,169 -6.75% view
S 2007-08-14 2007-08-16 17:11:00.0 FLIR SYSTEMS INC FLIR LEWIS EARL R officer (CEO, President & Chairman) 25,187 $48.79 $1,228,860.00 434,169 -4.35% view
S 2007-08-14 2007-08-15 16:33:47.0 FLIR SYSTEMS INC FLIR BAILEY STEPHEN M officer (Sr Vice President & CFO) 5,000 $49.06 $245,288.00 59,665 -3.78% view
S 2007-08-13 2007-08-14 14:08:13.0 FLIR SYSTEMS INC FLIR TRUNZO ANTHONY L officer (Sr VP Corp Strategy & Dvlpmnt) 2,000 $50.28 $100,563.00 23,160 1.45% view
S 2007-08-13 2007-08-14 14:07:58.0 FLIR SYSTEMS INC FLIR LEWIS EARL R officer (CEO, President & Chairman) 25,187 $49.10 $1,236,640.00 434,169 -0.92% view
S 2007-08-13 2007-08-14 14:07:42.0 FLIR SYSTEMS INC FLIR SUNDERMEIER WILLIAM A officer (President Government Systems) 8,528 $49.18 $419,441.00 14,378 -0.74% view
S 2007-08-13 2007-08-14 14:07:21.0 FLIR SYSTEMS INC FLIR TEICH ANDREW C officer (President Commercial Vision Sy) 7,500 $49.19 $368,936.00 29,577 -0.73% view
S 2007-08-10 2007-08-14 14:07:14.0 FLIR SYSTEMS INC FLIR HART JOHN C director 1,000 $50.82 $50,818.00 2,000 3.24% view
S 2007-08-07 2007-08-08 16:29:49.0 FLIR SYSTEMS INC FLIR TEICH ANDREW C officer (President Commercial Vision Sy) 7,500 $43.95 $329,591.00 29,577 -10.86% view
S 2007-08-07 2007-08-08 16:29:19.0 FLIR SYSTEMS INC FLIR BAILEY STEPHEN M officer (Sr Vice President & CFO) 5,000 $43.91 $219,550.00 64,665 -10.95% view
S 2007-08-06 2007-08-07 13:51:53.0 FLIR SYSTEMS INC FLIR SUNDERMEIER WILLIAM A officer (President Government Systems) 10,000 $43.48 $434,826.00 14,378 -11.42% view
S 2007-08-06 2007-08-07 13:51:32.0 FLIR SYSTEMS INC FLIR TRUNZO ANTHONY L officer (Sr VP Corp Strategy & Dvlpmnt) 2,500 $43.48 $108,712.00 23,160 -11.42% view
S 2007-07-31 2007-08-02 14:14:33.0 FLIR SYSTEMS INC FLIR BAILEY STEPHEN M officer (Sr Vice President & CFO) 4,966 $44.40 $220,490.00 69,665 -10.90% view
S 2007-07-30 2007-08-01 16:47:24.0 FLIR SYSTEMS INC FLIR SUNDERMEIER WILLIAM A officer (President Government Systems) 30,000 $43.64 $1,309,060.00 14,378 -10.58% view
S 2007-07-30 2007-08-01 16:47:24.0 FLIR SYSTEMS INC FLIR SUNDERMEIER WILLIAM A officer (President Government Systems) 1,734 $43.79 $75,931.90 14,378 -10.18% view
S 2007-07-30 2007-08-01 16:46:49.0 FLIR SYSTEMS INC FLIR TRUNZO ANTHONY L officer (Sr VP Corp Strategy & Dvlpmnt) 1,868 $43.79 $81,799.70 17,160 -10.18% view
S 2007-07-30 2007-08-01 16:46:49.0 FLIR SYSTEMS INC FLIR TRUNZO ANTHONY L officer (Sr VP Corp Strategy & Dvlpmnt) 632 $44.59 $28,180.70 17,160 -8.21% view
S 2007-06-05 2007-06-06 13:59:08.0 FLIR SYSTEMS INC FLIR FITZHENRY JAMES A officer (Sr VP Corp Operations & Sec.) 7,423 $41.72 $309,684.00 103,237 -13.95% view
S 2007-06-04 2007-06-06 13:59:08.0 FLIR SYSTEMS INC FLIR FITZHENRY JAMES A officer (Sr VP Corp Operations & Sec.) 4,000 $41.84 $167,340.00 103,237 -14.38% view
S 2007-06-04 2007-06-06 13:59:08.0 FLIR SYSTEMS INC FLIR FITZHENRY JAMES A officer (Sr VP Corp Operations & Sec.) 40,000 $41.72 $1,668,950.00 103,237 -14.68% view
S 2007-05-31 2007-06-01 16:33:27.0 FLIR SYSTEMS INC FLIR HART JOHN C director 4,000 $41.33 $165,300.00 2,000 -11.92% view
S 2007-05-29 2007-05-31 13:55:59.0 FLIR SYSTEMS INC FLIR HART JOHN C director 2,000 $41.05 $82,100.00 2,000 -12.67% view
S 2007-05-29 2007-05-31 13:55:35.0 FLIR SYSTEMS INC FLIR TEICH ANDREW C officer (President Commercial Vision Sy) 7,500 $41.00 $307,500.00 29,577 -12.80% view
S 2007-05-29 2007-05-31 13:55:11.0 FLIR SYSTEMS INC FLIR TRUNZO ANTHONY L officer (Sr VP Corp Strategy & Dvlpmnt) 4,000 $41.00 $164,000.00 17,160 -12.80% view
S 2007-05-23 2007-05-25 15:16:11.0 FLIR SYSTEMS INC FLIR HART JOHN C director 2,000 $41.78 $83,565.80 2,000 -3.58% view
S 2007-05-24 2007-05-25 15:15:27.0 FLIR SYSTEMS INC FLIR TEICH ANDREW C officer (President Commercial Vision Sy) 1,342 $41.08 $55,123.70 29,577 -5.37% view
S 2007-05-22 2007-05-24 16:25:57.0 FLIR SYSTEMS INC FLIR TEICH ANDREW C officer (President Commercial Vision Sy) 7,500 $41.16 $308,720.00 30,919 -5.14% view
S 2007-05-22 2007-05-23 14:13:25.0 FLIR SYSTEMS INC FLIR BAILEY STEPHEN M officer (Sr Vice President & CFO) 10,808 $41.50 $448,534.00 70,602 -4.29% view
S 2007-05-21 2007-05-23 14:13:15.0 FLIR SYSTEMS INC FLIR MACDONALD ANGUS L director 24,000 $41.23 $989,602.00 32,000 -5.62% view
S 2007-05-21 2007-05-23 14:13:04.0 FLIR SYSTEMS INC FLIR TRUNZO ANTHONY L officer (Sr VP Corp Strategy & Dvlpmnt) 4,000 $41.09 $164,360.00 17,160 -5.99% view
S 2007-05-18 2007-05-21 16:53:58.0 FLIR SYSTEMS INC FLIR LEWIS EARL R officer (CEO, President & Chairman) 30,187 $40.18 $1,212,870.00 384,169 -5.13% view
S 2007-05-17 2007-05-21 16:53:58.0 FLIR SYSTEMS INC FLIR LEWIS EARL R officer (CEO, President & Chairman) 30,187 $40.17 $1,212,620.00 384,169 -6.97% view
S 2007-05-15 2007-05-17 15:56:23.0 FLIR SYSTEMS INC FLIR BAILEY STEPHEN M officer (Sr Vice President & CFO) 14,226 $41.55 $591,104.00 81,410 -3.42% view
S 2007-05-15 2007-05-17 15:29:20.0 FLIR SYSTEMS INC FLIR TEICH ANDREW C officer (President Commercial Vision Sy) 15,000 $41.56 $623,469.00 30,919 -3.38% view
S 2007-05-16 2007-05-17 15:16:21.0 FLIR SYSTEMS INC FLIR LEWIS EARL R officer (CEO, President & Chairman) 30,187 $40.54 $1,223,660.00 414,356 -6.00% view
S 2007-05-15 2007-05-17 15:16:21.0 FLIR SYSTEMS INC FLIR LEWIS EARL R officer (CEO, President & Chairman) 30,187 $41.60 $1,255,660.00 414,356 -3.30% view
S 2007-05-14 2007-05-16 18:02:00.0 FLIR SYSTEMS INC FLIR TEICH ANDREW C officer (President Commercial Vision Sy) 1,542 $41.71 $64,317.90 30,919 -1.17% view
S 2007-05-14 2007-05-16 11:09:56.0 FLIR SYSTEMS INC FLIR TRUNZO ANTHONY L officer (Sr VP Corp Strategy & Dvlpmnt) 5,000 $41.71 $208,559.00 17,160 -1.17% view
S 2007-05-14 2007-05-16 11:09:49.0 FLIR SYSTEMS INC FLIR LEWIS EARL R officer (CEO, President & Chairman) 30,187 $42.01 $1,268,120.00 384,169 -0.46% view
S 2007-05-14 2007-05-16 11:09:23.0 FLIR SYSTEMS INC FLIR HART JOHN C director 1,000 $42.53 $42,530.00 2,000 0.78% view
S 2007-05-09 2007-05-11 17:59:34.0 FLIR SYSTEMS INC FLIR HART JOHN C director 2,000 $42.84 $85,680.00 2,000 6.28% view
S 2007-05-09 2007-05-10 18:08:52.0 FLIR SYSTEMS INC FLIR TRUNZO ANTHONY L officer (Sr VP Corp Strategy & Dvlpmnt) 5,000 $41.44 $207,190.00 17,160 3.11% view
S 2007-05-04 2007-05-08 13:29:09.0 FLIR SYSTEMS INC FLIR HART JOHN C director 2,000 $43.75 $87,500.00 2,000 27.25% view
S 2007-05-03 2007-05-04 18:15:52.0 FLIR SYSTEMS INC FLIR HART JOHN C director 2,000 $42.50 $85,000.00 2,000 25.11% view
S 2007-05-02 2007-05-04 18:15:52.0 FLIR SYSTEMS INC FLIR HART JOHN C director 2,000 $41.98 $83,960.20 2,000 24.18% view
S 2007-05-02 2007-05-04 18:15:52.0 FLIR SYSTEMS INC FLIR HART JOHN C director 1,000 $42.28 $42,280.10 2,000 24.72% view
S 2007-05-03 2007-05-04 17:15:36.0 FLIR SYSTEMS INC FLIR ALMERFORS ARNE officer (Executive Vice President) 70,000 $42.04 $2,942,760.00 63,130 24.29% view
S 2007-05-01 2007-05-03 12:32:47.0 FLIR SYSTEMS INC FLIR HART JOHN C director 2,000 $40.74 $81,479.00 2,000 21.87% view
S 2006-08-18 2006-08-18 14:48:19.0 FLIR SYSTEMS INC FLIR WYNNE STEVEN E director 10,000 $25.30 $253,000.00 2,200 -7.91% view
S 2006-07-21 2006-07-25 15:11:43.0 FLIR SYSTEMS INC FLIR WYNNE STEVEN E director 30,000 $23.88 $716,493.00 2,200 -6.27% view
S 2006-02-27 2006-03-01 17:28:50.0 FLIR SYSTEMS INC FLIR TEICH ANDREW C officer (Co-President Imaging) 73,192 $26.01 $1,903,860.00 26,874 -9.49% view
S 2006-02-27 2006-03-01 17:28:50.0 FLIR SYSTEMS INC FLIR TEICH ANDREW C officer (Co-President Imaging) 6,808 $25.99 $176,932.00 26,874 -9.59% view
S 2006-02-27 2006-03-01 17:20:22.0 FLIR SYSTEMS INC FLIR HART JOHN C director 2,000 $26.25 $52,500.00 0 -8.50% view
S 2006-02-24 2006-02-27 16:19:34.0 FLIR SYSTEMS INC FLIR HART JOHN C director 1,000 $26.03 $26,030.00 0 -6.76% view
S 2006-02-23 2006-02-27 16:19:34.0 FLIR SYSTEMS INC FLIR HART JOHN C director 2,000 $25.33 $50,664.40 0 -8.36% view
S 2006-02-17 2006-02-21 16:20:13.0 FLIR SYSTEMS INC FLIR TEICH ANDREW C officer (Co-President Imaging) 28,500 $25.68 $731,880.00 26,874 -5.72% view
S 2006-02-16 2006-02-21 16:20:13.0 FLIR SYSTEMS INC FLIR TEICH ANDREW C officer (Co-President Imaging) 8,500 $25.76 $218,960.00 55,374 -6.13% view
S 2006-02-14 2006-02-16 16:17:14.0 FLIR SYSTEMS INC FLIR TEICH ANDREW C officer (Sr VP Co-President Imaging) 10,588 $25.11 $265,865.00 58,174 -11.51% view
S 2006-02-14 2006-02-16 16:17:03.0 FLIR SYSTEMS INC FLIR HART JOHN C director 1,000 $25.11 $25,105.10 0 -11.53% view
S 2006-02-13 2006-02-14 14:45:04.0 FLIR SYSTEMS INC FLIR HART JOHN C director 1,000 $25.78 $25,775.30 0 -7.47% view
S 2006-02-10 2006-02-14 14:45:04.0 FLIR SYSTEMS INC FLIR HART JOHN C director 2,000 $25.75 $51,500.00 0 -5.48% view
S 2005-11-30 2005-12-01 13:31:57.0 FLIR SYSTEMS INC FLIR HART JOHN C director 2,000 $24.10 $48,201.40 0 7.35% view
S 2005-11-30 2005-12-01 13:31:57.0 FLIR SYSTEMS INC FLIR HART JOHN C director 2,000 $24.05 $48,100.00 2,000 7.15% view
P 2005-11-28 2005-11-29 17:59:05.0 FLIR SYSTEMS INC FLIR MACDONALD ANGUS L director 1,000 $23.67 $23,670.00 30,000 -5.15% view
P 2005-11-02 2005-11-04 15:49:23.0 FLIR SYSTEMS INC FLIR LEWIS EARL R CEO 10,000 $21.50 $215,000.00 350,465 6.88% view
S 2005-08-31 2005-09-01 13:55:44.0 FLIR SYSTEMS INC FLIR HART JOHN C director 2,000 $32.26 $64,516.40 0 8.33% view
S 2005-08-30 2005-09-01 13:55:44.0 FLIR SYSTEMS INC FLIR HART JOHN C director 2,000 $32.26 $64,529.80 0 8.35% view
S 2005-08-25 2005-08-29 14:04:39.0 FLIR SYSTEMS INC FLIR HART JOHN C director 2,000 $32.45 $64,907.20 0 10.24% view
S 2005-08-25 2005-08-29 14:04:34.0 FLIR SYSTEMS INC FLIR HART JOHN C director 2,000 $32.48 $64,959.40 0 10.31% view
S 2005-08-19 2005-08-23 12:54:02.0 FLIR SYSTEMS INC FLIR HART JOHN C director 3,000 $32.87 $98,616.30 0 9.32% view
S 2005-08-19 2005-08-23 12:54:02.0 FLIR SYSTEMS INC FLIR HART JOHN C director 2,000 $32.75 $65,499.00 3,000 8.98% view
S 2005-08-15 2005-08-17 17:44:05.0 FLIR SYSTEMS INC FLIR HART JOHN C director 2,000 $31.97 $63,942.20 0 7.39% view
S 2005-08-10 2005-08-12 16:28:27.0 FLIR SYSTEMS INC FLIR HART JOHN C director 2,000 $33.03 $66,053.60 0 9.16% view
S 2005-08-08 2005-08-10 14:29:21.0 FLIR SYSTEMS INC FLIR HART JOHN C director 1,000 $32.73 $32,730.60 0 7.43% view
S 2005-08-02 2005-08-03 12:50:17.0 FLIR SYSTEMS INC FLIR TRUNZO ANTHONY L officer (Sr VP Corp Strategy & Dvlpmnt) 14,318 $35.00 $501,130.00 9,471 12.03% view
S 2005-08-01 2005-08-03 12:23:47.0 FLIR SYSTEMS INC FLIR HART JOHN C director 1,000 $35.46 $35,460.00 0 10.91% view
S 2005-08-01 2005-08-02 13:55:27.0 FLIR SYSTEMS INC FLIR SUNDERMEIER WILLIAM A officer (Sr VP Co-President Imaging) 136,480 $33.92 $4,629,120.00 7,760 6.86% view
S 2005-07-29 2005-08-02 13:55:27.0 FLIR SYSTEMS INC FLIR SUNDERMEIER WILLIAM A officer (Sr VP Co-President Imaging) 13,520 $33.50 $452,942.00 7,760 3.92% view
S 2005-07-27 2005-07-29 14:12:10.0 FLIR SYSTEMS INC FLIR WYNNE STEVEN E director 24,000 $33.02 $792,480.00 1,200 1.54% view
S 2005-07-25 2005-07-27 13:49:49.0 FLIR SYSTEMS INC FLIR HART JOHN C director 1,000 $32.95 $32,950.00 0 1.31% view
S 2005-07-25 2005-07-26 18:17:34.0 FLIR SYSTEMS INC FLIR MANITAKOS DANIEL L officer (Sr VP Boston Ops) 100,000 $32.57 $3,257,110.00 180,999 0.16% view
S 2005-05-31 2005-06-01 17:20:48.0 FLIR SYSTEMS INC FLIR HART JOHN C director 1,000 $27.09 $27,090.00 0 -10.15% view
S 2005-05-31 2005-06-01 17:20:48.0 FLIR SYSTEMS INC FLIR HART JOHN C director 1,000 $26.68 $26,681.10 1,000 -11.84% view
S 2005-05-31 2005-06-01 17:20:38.0 FLIR SYSTEMS INC FLIR TURNER RONALD L director 23,630 $26.56 $627,622.00 64,630 -12.35% view
S 2005-05-23 2005-05-31 18:05:37.0 FLIR SYSTEMS INC FLIR TURNER RONALD L director 24,000 $25.63 $615,101.00 0 -13.89% view
S 2005-05-27 2005-05-31 18:03:56.0 FLIR SYSTEMS INC FLIR HART JOHN C director 2,000 $26.00 $52,000.20 0 -9.38% view
S 2005-05-27 2005-05-31 18:03:56.0 FLIR SYSTEMS INC FLIR HART JOHN C director 1,000 $26.20 $26,200.30 2,000 -8.55% view
S 2005-05-27 2005-05-31 18:03:56.0 FLIR SYSTEMS INC FLIR TURNER RONALD L director 20,350 $26.13 $531,829.00 60,610 -8.82% view
S 2005-05-26 2005-05-31 18:03:56.0 FLIR SYSTEMS INC FLIR TURNER RONALD L director 11,390 $25.82 $294,073.00 48,000 -10.42% view
S 2005-05-25 2005-05-26 18:19:59.0 FLIR SYSTEMS INC FLIR HART JOHN C director 1,000 $25.73 $25,725.60 0 -10.82% view
S 2005-05-23 2005-05-25 17:33:49.0 FLIR SYSTEMS INC FLIR HART JOHN C director 1,000 $26.08 $26,083.50 0 -11.91% view
S 2005-05-24 2005-05-25 17:33:33.0 FLIR SYSTEMS INC FLIR TURNER RONALD L director 24,000 $26.30 $631,200.00 0 -8.40% view
S 2005-05-23 2005-05-25 17:33:33.0 FLIR SYSTEMS INC FLIR TURNER RONALD L director 24,000 $25.63 $615,101.00 0 -13.89% view
S 2005-05-18 2005-05-20 12:40:14.0 FLIR SYSTEMS INC FLIR HART JOHN C director 1,000 $25.11 $25,114.10 0 -18.06% view
S 2005-05-05 2005-05-09 11:44:50.0 FLIR SYSTEMS INC FLIR HART JOHN C director 1,000 $27.25 $27,250.00 0 -2.86% view
S 2005-04-26 2005-04-28 11:52:52.0 FLIR SYSTEMS INC FLIR HART JOHN C director 300 $26.45 $7,935.84 0 1.79% view
S 2005-04-26 2005-04-28 11:52:52.0 FLIR SYSTEMS INC FLIR HART JOHN C director 700 $26.45 $18,515.00 300 1.78% view
P 2005-04-25 2005-04-26 16:23:09.0 FLIR SYSTEMS INC FLIR MACDONALD ANGUS L director 900 $26.51 $23,861.00 29,000 -2.80% view
P 2005-04-25 2005-04-26 16:23:09.0 FLIR SYSTEMS INC FLIR MACDONALD ANGUS L director 100 $26.50 $2,650.00 28,100 -2.75% view
P 2005-04-25 2005-04-26 12:50:12.0 FLIR SYSTEMS INC FLIR MACDONALD ANGUS L director 900 $26.51 $23,861.00 29,000 -2.80% view
P 2005-04-25 2005-04-26 12:50:12.0 FLIR SYSTEMS INC FLIR MACDONALD ANGUS L director 100 $26.50 $2,650.00 28,100 -2.75% view
S 2005-02-28 2005-03-01 13:25:19.0 FLIR SYSTEMS INC FLIR HART JOHN C director 1,000 $31.02 $31,016.00 0 5.44% view
S 2005-02-25 2005-03-01 13:25:19.0 FLIR SYSTEMS INC FLIR HART JOHN C director 1,000 $31.04 $31,042.00 0 4.81% view
S 2005-02-23 2005-02-24 17:30:39.0 FLIR SYSTEMS INC FLIR HART JOHN C director 1,000 $30.82 $30,823.60 0 -1.38% view
S 2005-02-23 2005-02-24 17:30:39.0 FLIR SYSTEMS INC FLIR HART JOHN C director 1,000 $31.13 $31,126.40 1,000 -0.40% view
S 2005-02-22 2005-02-24 17:30:39.0 FLIR SYSTEMS INC FLIR HART JOHN C director 1,000 $30.87 $30,872.40 0 -2.42% view
S 2005-02-16 2005-02-18 12:19:24.0 FLIR SYSTEMS INC FLIR HART JOHN C director 1,000 $31.47 $31,468.00 0 -3.31% view
S 2005-02-14 2005-02-15 13:08:39.0 FLIR SYSTEMS INC FLIR HART JOHN C director 1,000 $31.95 $31,954.00 0 -4.06% view
S 2005-02-11 2005-02-15 13:08:39.0 FLIR SYSTEMS INC FLIR HART JOHN C director 1,000 $31.65 $31,651.80 0 -5.33% view
S 2005-02-11 2005-02-14 12:11:21.0 FLIR SYSTEMS INC FLIR BAILEY STEPHEN M officer (Sr Vice President & CFO) 20,000 $31.75 $635,000.00 58,380 -5.01% view
S 2005-02-11 2005-02-14 12:11:21.0 FLIR SYSTEMS INC FLIR BAILEY STEPHEN M officer (Sr Vice President & CFO) 20,000 $31.31 $626,230.00 78,380 -6.48% view
S 2005-02-10 2005-02-14 12:11:21.0 FLIR SYSTEMS INC FLIR BAILEY STEPHEN M officer (Sr Vice President & CFO) 25,532 $31.12 $794,518.00 58,380 -7.72% view
S 2005-02-08 2005-02-10 10:59:00.0 FLIR SYSTEMS INC FLIR BAILEY STEPHEN M officer (Sr Vice President & CFO) 24,168 $31.81 $768,803.00 58,380 -5.91% view
S 2005-02-08 2005-02-10 10:56:09.0 FLIR SYSTEMS INC FLIR HART JOHN C director 1,000 $31.73 $31,725.00 0 -6.19% view
S 2005-02-08 2005-02-10 10:56:09.0 FLIR SYSTEMS INC FLIR HART JOHN C director 1,000 $31.76 $31,756.50 0 -6.09% view
S 2005-02-07 2005-02-08 19:47:54.0 FLIR SYSTEMS INC FLIR HART JOHN C director 1,000 $31.70 $31,704.90 0 -7.65% view
S 2005-02-04 2005-02-08 19:47:54.0 FLIR SYSTEMS INC FLIR HART JOHN C director 500 $31.14 $15,570.00 0 -7.10% view
S 2005-02-04 2005-02-08 19:47:54.0 FLIR SYSTEMS INC FLIR HART JOHN C director 500 $31.14 $15,567.60 500 -7.11% view
S 2005-02-07 2005-02-08 19:47:24.0 FLIR SYSTEMS INC FLIR BAILEY STEPHEN M officer (Sr Vice President & CFO) 20,300 $31.75 $644,539.00 58,380 -7.49% view
S 2005-02-04 2005-02-08 19:47:24.0 FLIR SYSTEMS INC FLIR BAILEY STEPHEN M officer (Sr Vice President & CFO) 50,000 $31.25 $1,562,500.00 58,380 -6.72% view
S 2005-02-04 2005-02-08 19:47:24.0 FLIR SYSTEMS INC FLIR MACDONALD ANGUS L director 24,000 $31.20 $748,874.00 28,000 -6.88% view
S 2004-11-29 2004-12-01 14:46:00.0 FLIR SYSTEMS INC FLIR ALMERFORS ARNE officer (Executive Vice President) 20,935 $58.01 $1,214,390.00 27,054 -7.99% view
S 2004-11-29 2004-12-01 14:46:00.0 FLIR SYSTEMS INC FLIR HART JOHN C director 500 $58.90 $29,450.00 0 -6.35% view
S 2004-11-26 2004-11-30 15:55:11.0 FLIR SYSTEMS INC FLIR ALMERFORS ARNE officer (Executive Vice President) 8,939 $58.50 $522,932.00 27,054 N/A view
S 2004-11-24 2004-11-29 20:23:33.0 FLIR SYSTEMS INC FLIR ALMERFORS ARNE officer (Executive Vice President) 20,126 $58.50 $1,177,390.00 27,054 -5.18% view
S 2004-11-22 2004-11-23 20:53:42.0 FLIR SYSTEMS INC FLIR HART JOHN C director 500 $57.90 $28,950.00 0 -4.49% view
S 2004-11-18 2004-11-22 21:18:40.0 FLIR SYSTEMS INC FLIR TEICH ANDREW C officer (Co-President, Imaging Systems) 44,002 $59.55 $2,620,460.00 32,663 -0.95% view
S 2004-11-18 2004-11-22 21:18:40.0 FLIR SYSTEMS INC FLIR TEICH ANDREW C officer (Co-President, Imaging Systems) 13,304 $59.55 $792,297.00 32,663 -0.95% view
S 2004-11-18 2004-11-22 21:18:40.0 FLIR SYSTEMS INC FLIR TEICH ANDREW C officer (Co-President, Imaging Systems) 3,402 $60.00 $204,120.00 32,663 -0.20% view
S 2004-11-17 2004-11-22 08:00:58.0 FLIR SYSTEMS INC FLIR TEICH ANDREW C officer (Co-President, Imaging Systems) 78,000 $59.62 $4,650,290.00 36,065 -0.84% view
S 2004-11-17 2004-11-22 08:00:58.0 FLIR SYSTEMS INC FLIR TEICH ANDREW C officer (Co-President, Imaging Systems) 3,998 $59.62 $238,357.00 36,065 -0.84% view
S 2004-11-17 2004-11-22 08:00:58.0 FLIR SYSTEMS INC FLIR TEICH ANDREW C officer (Co-President, Imaging Systems) 485 $59.82 $29,012.50 36,065 -0.50% view
S 2004-11-17 2004-11-22 08:00:58.0 FLIR SYSTEMS INC FLIR TEICH ANDREW C officer (Co-President, Imaging Systems) 510 $59.82 $30,508.00 36,550 -0.50% view
S 2004-11-17 2004-11-22 08:00:58.0 FLIR SYSTEMS INC FLIR TEICH ANDREW C officer (Co-President, Imaging Systems) 636 $59.82 $38,045.30 37,060 -0.50% view
S 2004-11-17 2004-11-22 08:00:58.0 FLIR SYSTEMS INC FLIR TEICH ANDREW C officer (Co-President, Imaging Systems) 550 $59.82 $32,900.80 37,696 -0.50% view
S 2004-11-17 2004-11-19 21:03:34.0 FLIR SYSTEMS INC FLIR TEICH ANDREW C officer (Co-President, Imaging Systems) 78,000 $59.62 $4,650,290.00 36,065 -0.84% view
S 2004-11-17 2004-11-19 21:03:34.0 FLIR SYSTEMS INC FLIR TEICH ANDREW C officer (Co-President, Imaging Systems) 3,998 $59.62 $238,357.00 36,065 -0.84% view
S 2004-11-17 2004-11-19 21:03:34.0 FLIR SYSTEMS INC FLIR TEICH ANDREW C officer (Co-President, Imaging Systems) 485 $59.82 $29,012.50 36,065 -0.50% view
S 2004-11-17 2004-11-19 21:03:34.0 FLIR SYSTEMS INC FLIR TEICH ANDREW C officer (Co-President, Imaging Systems) 510 $59.82 $30,508.00 36,550 -0.50% view
S 2004-11-17 2004-11-19 21:03:34.0 FLIR SYSTEMS INC FLIR TEICH ANDREW C officer (Co-President, Imaging Systems) 636 $59.82 $38,045.30 37,060 -0.50% view
S 2004-11-17 2004-11-19 21:03:34.0 FLIR SYSTEMS INC FLIR TEICH ANDREW C officer (Co-President, Imaging Systems) 550 $59.82 $32,900.80 37,696 -0.50% view
S 2004-11-12 2004-11-16 20:41:05.0 FLIR SYSTEMS INC FLIR SUDEROW DETLEV officer (SR VP Human Resources) 52,224 $60.07 $3,137,310.00 10,968 8.61% view
S 2004-11-12 2004-11-16 20:40:04.0 FLIR SYSTEMS INC FLIR HART JOHN C director 500 $60.25 $30,125.00 0 8.88% view
S 2004-11-11 2004-11-12 14:47:58.0 FLIR SYSTEMS INC FLIR HART JOHN C director 500 $59.97 $29,983.80 0 8.45% view
S 2004-11-09 2004-11-10 17:33:03.0 FLIR SYSTEMS INC FLIR HART JOHN C director 500 $58.22 $29,110.00 0 3.37% view
S 2004-11-04 2004-11-05 17:36:46.0 FLIR SYSTEMS INC FLIR HART JOHN C director 500 $58.24 $29,120.00 0 2.85% view
S 2004-11-02 2004-11-03 17:42:21.0 FLIR SYSTEMS INC FLIR HART JOHN C director 500 $54.85 $27,425.00 0 -4.56% view
S 2004-10-22 2004-10-26 12:09:03.0 FLIR SYSTEMS INC FLIR HART JOHN C director 500 $54.76 $27,378.00 0 -6.62% view
S 2004-08-23 2004-08-25 19:02:13.0 FLIR SYSTEMS INC FLIR LEWIS EARL R director officer (Chairman, President, & CEO) 20,000 $66.13 $1,322,650.00 168,654 5.52% view
S 2004-08-23 2004-08-25 19:02:13.0 FLIR SYSTEMS INC FLIR LEWIS EARL R director officer (Chairman, President, & CEO) 40,000 $65.38 $2,615,050.00 168,654 4.43% view
S 2004-08-23 2004-08-25 19:02:13.0 FLIR SYSTEMS INC FLIR LEWIS EARL R director officer (Chairman, President, & CEO) 20,000 $64.31 $1,286,250.00 168,654 2.85% view
S 2004-08-23 2004-08-25 19:01:13.0 FLIR SYSTEMS INC FLIR HART JOHN C director 500 $66.25 $33,125.00 0 5.69% view
S 2004-08-23 2004-08-25 19:01:13.0 FLIR SYSTEMS INC FLIR HART JOHN C director 500 $64.53 $32,267.00 0 3.18% view
S 2004-08-20 2004-08-24 11:50:23.0 FLIR SYSTEMS INC FLIR FITZHENRY JAMES A officer (Sr VP, General Counsel & Sec.) 1,500 $63.19 $94,789.00 46,394 0.12% view
S 2004-08-20 2004-08-24 11:50:23.0 FLIR SYSTEMS INC FLIR HART JOHN C director 1,000 $63.10 $63,095.00 0 -0.04% view
S 2004-08-20 2004-08-24 11:50:23.0 FLIR SYSTEMS INC FLIR LEWIS EARL R director officer (Chairman, President, & CEO) 20,000 $62.77 $1,255,450.00 168,654 -0.55% view
S 2004-08-20 2004-08-24 11:50:23.0 FLIR SYSTEMS INC FLIR SUNDERMEIER WILLIAM A officer (Co-President, Imaging Systems) 33,395 $63.00 $2,103,880.00 3,645 -0.19% view
S 2004-08-19 2004-08-23 13:44:37.0 FLIR SYSTEMS INC FLIR FITZHENRY JAMES A officer (Sr VP, General Counsel & Sec.) 2,000 $63.02 $126,032.00 46,394 0.20% view
S 2004-08-19 2004-08-23 13:44:37.0 FLIR SYSTEMS INC FLIR LEWIS EARL R director officer (Chairman, President, & CEO) 10,000 $62.91 $629,070.00 168,654 0.03% view
S 2004-08-19 2004-08-23 13:44:37.0 FLIR SYSTEMS INC FLIR SUNDERMEIER WILLIAM A officer (Co-President, Imaging Systems) 16,605 $63.00 $1,046,120.00 3,645 0.17% view
S 2004-08-18 2004-08-20 15:43:37.0 FLIR SYSTEMS INC FLIR LEWIS EARL R director officer (Chairman, President, & CEO) 10,000 $62.14 $621,430.00 178,654 -1.20% view
S 2004-08-18 2004-08-20 15:42:36.0 FLIR SYSTEMS INC FLIR FITZHENRY JAMES A officer (Sr VP, General Counsel & Sec.) 2,000 $62.59 $125,175.00 46,394 -0.48% view
S 2004-08-17 2004-08-20 10:57:31.0 FLIR SYSTEMS INC FLIR FITZHENRY JAMES A officer (Sr VP, General Counsel & Sec.) 12,500 $61.69 $771,110.00 46,394 -1.95% view
S 2004-08-17 2004-08-20 10:57:31.0 FLIR SYSTEMS INC FLIR LEWIS EARL R director officer (Chairman, President, & CEO) 10,000 $61.28 $612,770.00 188,654 -2.63% view
S 2004-08-17 2004-08-19 13:44:31.0 FLIR SYSTEMS INC FLIR FITZHENRY JAMES A officer (Sr VP, General Counsel & Sec.) 12,500 $61.69 $771,110.00 46,394 -1.95% view
S 2004-08-17 2004-08-18 19:13:28.0 FLIR SYSTEMS INC FLIR LEWIS EARL R director officer (Chairman, President, & CEO) 10,000 $61.28 $612,770.00 188,654 -2.63% view
S 2004-08-16 2004-08-18 10:37:33.0 FLIR SYSTEMS INC FLIR HART JOHN C director 1,000 $60.70 $60,703.00 0 -2.24% view
S 2004-08-10 2004-08-12 15:23:23.0 FLIR SYSTEMS INC FLIR LEWIS EARL R director officer (Chairman, President, & CEO) 15,582 $61.44 $957,405.00 198,654 -0.01% view
S 2004-08-10 2004-08-12 15:23:23.0 FLIR SYSTEMS INC FLIR LEWIS EARL R director officer (Chairman, President, & CEO) 31,500 $61.55 $1,938,880.00 214,236 0.17% view
S 2004-08-06 2004-08-10 11:36:44.0 FLIR SYSTEMS INC FLIR LEWIS EARL R director officer (Chairman, President, & CEO) 5,756 $59.43 $342,072.00 234,236 -0.79% view
S 2004-08-06 2004-08-10 11:36:44.0 FLIR SYSTEMS INC FLIR LEWIS EARL R director officer (Chairman, President, & CEO) 44,244 $59.43 $2,629,370.00 234,236 -0.79% view
S 2004-08-05 2004-08-06 19:15:06.0 FLIR SYSTEMS INC FLIR LEWIS EARL R director officer (Chairman, President, & CEO) 12,500 $62.51 $781,375.00 234,236 4.18% view
S 2004-08-05 2004-08-06 19:15:06.0 FLIR SYSTEMS INC FLIR LEWIS EARL R director officer (Chairman, President, & CEO) 950 $62.50 $59,375.00 234,236 4.16% view
S 2004-08-05 2004-08-06 19:15:06.0 FLIR SYSTEMS INC FLIR LEWIS EARL R director officer (Chairman, President, & CEO) 50 $62.60 $3,130.00 235,186 4.31% view
S 2004-08-04 2004-08-06 13:18:33.0 FLIR SYSTEMS INC FLIR LEWIS EARL R director officer (Chairman, President, & CEO) 13,500 $62.54 $844,349.00 235,236 4.23% view
S 2004-08-04 2004-08-06 13:18:33.0 FLIR SYSTEMS INC FLIR LEWIS EARL R director officer (Chairman, President, & CEO) 1,000 $62.50 $62,500.00 235,236 4.16% view
S 2004-08-04 2004-08-06 13:18:33.0 FLIR SYSTEMS INC FLIR LEWIS EARL R director officer (Chairman, President, & CEO) 500 $63.50 $31,750.00 236,236 5.67% view
S 2004-08-04 2004-08-06 13:18:33.0 FLIR SYSTEMS INC FLIR LEWIS EARL R director officer (Chairman, President, & CEO) 1,000 $63.67 $63,670.00 236,736 5.92% view
S 2004-08-03 2004-08-05 15:49:41.0 FLIR SYSTEMS INC FLIR LEWIS EARL R director officer (Chairman, President, & CEO) 1,756 $63.08 $110,768.00 237,736 5.04% view
S 2004-08-03 2004-08-05 15:49:41.0 FLIR SYSTEMS INC FLIR LEWIS EARL R director officer (Chairman, President, & CEO) 40,744 $63.08 $2,570,130.00 237,736 5.04% view
S 2004-08-02 2004-08-04 14:53:00.0 FLIR SYSTEMS INC FLIR WYNNE STEVEN E director 12,000 $63.89 $766,642.00 600 6.41% view
S 2004-08-02 2004-08-03 19:59:35.0 FLIR SYSTEMS INC FLIR HART JOHN C director 1,000 $63.92 $63,923.00 0 6.47% view
S 2004-07-29 2004-08-02 10:58:54.0 FLIR SYSTEMS INC FLIR TURNER RONALD L director 6,000 $62.07 $372,412.00 0 -0.71% view
S 2004-07-29 2004-08-02 10:58:54.0 FLIR SYSTEMS INC FLIR TURNER RONALD L director 6,000 $61.69 $370,125.00 0 -1.33% view
S 2004-07-28 2004-07-30 14:17:17.0 FLIR SYSTEMS INC FLIR TURNER RONALD L director 9,000 $60.34 $543,038.00 0 -3.60% view
* An * after P or S in the Buy/Sell column means the transaction was filed by the insider as open market, but it was marked as private transaction by insidercow's proprietary method
Show all 507 records.
Enter Another Stock Symbol: